<?xml version="1.0" encoding="UTF-8" standalone="no" ?>
<gpx xmlns="http://www.topografix.com/GPX/1/1" xmlns:xsi="http://www.w3.org/2001/XMLSchema-instance" xsi:schemaLocation="http://www.topografix.com/GPX/1/1 http://www.topografix.com/GPX/1/1/gpx.xsd" version="1.1" creator="VisuGPX - https://www.visugpx.com">
  <metadata>
    <name>Trace Vallon de Saint Gens</name>
    <desc><![CDATA[Sortie effectuée par 17 randonneurs du SCLapalud]]></desc>
  </metadata>
  <trk>
    <name><![CDATA[ACTIVE LOG]]></name>
    <trkseg>
      <trkpt lat="43.97845" lon="5.10842">
        <ele>304</ele>
        <time>2013-04-11T09:41:14Z</time>
      </trkpt>
      <trkpt lat="43.97845" lon="5.10842">
        <ele>304</ele>
        <time>2013-04-11T09:41:16Z</time>
      </trkpt>
      <trkpt lat="43.97845" lon="5.10842">
        <ele>304</ele>
        <time>2013-04-11T09:41:17Z</time>
      </trkpt>
      <trkpt lat="43.97845" lon="5.10842">
        <ele>301</ele>
        <time>2013-04-11T09:41:36Z</time>
      </trkpt>
      <trkpt lat="43.97845" lon="5.10843">
        <ele>298</ele>
        <time>2013-04-11T09:41:46Z</time>
      </trkpt>
      <trkpt lat="43.97846" lon="5.10844">
        <ele>295</ele>
        <time>2013-04-11T09:42:03Z</time>
      </trkpt>
      <trkpt lat="43.97847" lon="5.10835">
        <ele>292</ele>
        <time>2013-04-11T09:42:35Z</time>
      </trkpt>
      <trkpt lat="43.97848" lon="5.10835">
        <ele>289</ele>
        <time>2013-04-11T09:43:18Z</time>
      </trkpt>
      <trkpt lat="43.97853" lon="5.10836">
        <ele>291</ele>
        <time>2013-04-11T09:43:45Z</time>
      </trkpt>
      <trkpt lat="43.97862" lon="5.10842">
        <ele>291</ele>
        <time>2013-04-11T09:44:01Z</time>
      </trkpt>
      <trkpt lat="43.9786" lon="5.10849">
        <ele>292</ele>
        <time>2013-04-11T09:44:08Z</time>
      </trkpt>
      <trkpt lat="43.97853" lon="5.1087">
        <ele>293</ele>
        <time>2013-04-11T09:44:24Z</time>
      </trkpt>
      <trkpt lat="43.97846" lon="5.10898">
        <ele>294</ele>
        <time>2013-04-11T09:44:45Z</time>
      </trkpt>
      <trkpt lat="43.97848" lon="5.10916">
        <ele>296</ele>
        <time>2013-04-11T09:44:59Z</time>
      </trkpt>
      <trkpt lat="43.9784" lon="5.10945">
        <ele>299</ele>
        <time>2013-04-11T09:45:22Z</time>
      </trkpt>
      <trkpt lat="43.97823" lon="5.10952">
        <ele>301</ele>
        <time>2013-04-11T09:45:42Z</time>
      </trkpt>
      <trkpt lat="43.97808" lon="5.10961">
        <ele>303</ele>
        <time>2013-04-11T09:46:02Z</time>
      </trkpt>
      <trkpt lat="43.97802" lon="5.10979">
        <ele>305</ele>
        <time>2013-04-11T09:46:21Z</time>
      </trkpt>
      <trkpt lat="43.97804" lon="5.10979">
        <ele>306</ele>
        <time>2013-04-11T09:46:40Z</time>
      </trkpt>
      <trkpt lat="43.97809" lon="5.10973">
        <ele>307</ele>
        <time>2013-04-11T09:46:49Z</time>
      </trkpt>
      <trkpt lat="43.97826" lon="5.10974">
        <ele>309</ele>
        <time>2013-04-11T09:47:10Z</time>
      </trkpt>
      <trkpt lat="43.97828" lon="5.10978">
        <ele>310</ele>
        <time>2013-04-11T09:47:15Z</time>
      </trkpt>
      <trkpt lat="43.97832" lon="5.10993">
        <ele>310</ele>
        <time>2013-04-11T09:47:31Z</time>
      </trkpt>
      <trkpt lat="43.97825" lon="5.11005">
        <ele>311</ele>
        <time>2013-04-11T09:47:52Z</time>
      </trkpt>
      <trkpt lat="43.97809" lon="5.11027">
        <ele>314</ele>
        <time>2013-04-11T09:48:14Z</time>
      </trkpt>
      <trkpt lat="43.97802" lon="5.11034">
        <ele>314</ele>
        <time>2013-04-11T09:48:25Z</time>
      </trkpt>
      <trkpt lat="43.97793" lon="5.11045">
        <ele>315</ele>
        <time>2013-04-11T09:48:41Z</time>
      </trkpt>
      <trkpt lat="43.97785" lon="5.11055">
        <ele>316</ele>
        <time>2013-04-11T09:48:57Z</time>
      </trkpt>
      <trkpt lat="43.97768" lon="5.11069">
        <ele>318</ele>
        <time>2013-04-11T09:49:18Z</time>
      </trkpt>
      <trkpt lat="43.97756" lon="5.11085">
        <ele>320</ele>
        <time>2013-04-11T09:49:40Z</time>
      </trkpt>
      <trkpt lat="43.97744" lon="5.11102">
        <ele>321</ele>
        <time>2013-04-11T09:50:00Z</time>
      </trkpt>
      <trkpt lat="43.97733" lon="5.11122">
        <ele>323</ele>
        <time>2013-04-11T09:50:22Z</time>
      </trkpt>
      <trkpt lat="43.97719" lon="5.11145">
        <ele>325</ele>
        <time>2013-04-11T09:50:47Z</time>
      </trkpt>
      <trkpt lat="43.97705" lon="5.11166">
        <ele>326</ele>
        <time>2013-04-11T09:51:10Z</time>
      </trkpt>
      <trkpt lat="43.97688" lon="5.11187">
        <ele>327</ele>
        <time>2013-04-11T09:51:35Z</time>
      </trkpt>
      <trkpt lat="43.97673" lon="5.11211">
        <ele>329</ele>
        <time>2013-04-11T09:52:00Z</time>
      </trkpt>
      <trkpt lat="43.97658" lon="5.11234">
        <ele>331</ele>
        <time>2013-04-11T09:52:23Z</time>
      </trkpt>
      <trkpt lat="43.97648" lon="5.1125">
        <ele>334</ele>
        <time>2013-04-11T09:52:44Z</time>
      </trkpt>
      <trkpt lat="43.97639" lon="5.11262">
        <ele>335</ele>
        <time>2013-04-11T09:52:59Z</time>
      </trkpt>
      <trkpt lat="43.97626" lon="5.11272">
        <ele>336</ele>
        <time>2013-04-11T09:53:15Z</time>
      </trkpt>
      <trkpt lat="43.97609" lon="5.11285">
        <ele>337</ele>
        <time>2013-04-11T09:53:36Z</time>
      </trkpt>
      <trkpt lat="43.97588" lon="5.11297">
        <ele>338</ele>
        <time>2013-04-11T09:54:00Z</time>
      </trkpt>
      <trkpt lat="43.97574" lon="5.11311">
        <ele>339</ele>
        <time>2013-04-11T09:54:19Z</time>
      </trkpt>
      <trkpt lat="43.97551" lon="5.11326">
        <ele>339</ele>
        <time>2013-04-11T09:54:42Z</time>
      </trkpt>
      <trkpt lat="43.97534" lon="5.11338">
        <ele>340</ele>
        <time>2013-04-11T09:55:03Z</time>
      </trkpt>
      <trkpt lat="43.9751" lon="5.11349">
        <ele>341</ele>
        <time>2013-04-11T09:55:26Z</time>
      </trkpt>
      <trkpt lat="43.97495" lon="5.11361">
        <ele>342</ele>
        <time>2013-04-11T09:55:46Z</time>
      </trkpt>
      <trkpt lat="43.97487" lon="5.11379">
        <ele>342</ele>
        <time>2013-04-11T09:56:03Z</time>
      </trkpt>
      <trkpt lat="43.97483" lon="5.11387">
        <ele>342</ele>
        <time>2013-04-11T09:56:12Z</time>
      </trkpt>
      <trkpt lat="43.97472" lon="5.11403">
        <ele>341</ele>
        <time>2013-04-11T09:56:29Z</time>
      </trkpt>
      <trkpt lat="43.97456" lon="5.11415">
        <ele>340</ele>
        <time>2013-04-11T09:56:50Z</time>
      </trkpt>
      <trkpt lat="43.97448" lon="5.11416">
        <ele>339</ele>
        <time>2013-04-11T09:57:02Z</time>
      </trkpt>
      <trkpt lat="43.97443" lon="5.11418">
        <ele>339</ele>
        <time>2013-04-11T09:57:07Z</time>
      </trkpt>
      <trkpt lat="43.97435" lon="5.11422">
        <ele>337</ele>
        <time>2013-04-11T09:57:23Z</time>
      </trkpt>
      <trkpt lat="43.97433" lon="5.11423">
        <ele>337</ele>
        <time>2013-04-11T09:57:25Z</time>
      </trkpt>
      <trkpt lat="43.97416" lon="5.11433">
        <ele>336</ele>
        <time>2013-04-11T09:57:45Z</time>
      </trkpt>
      <trkpt lat="43.97406" lon="5.11438">
        <ele>336</ele>
        <time>2013-04-11T09:57:57Z</time>
      </trkpt>
      <trkpt lat="43.97392" lon="5.11444">
        <ele>336</ele>
        <time>2013-04-11T09:58:12Z</time>
      </trkpt>
      <trkpt lat="43.97378" lon="5.11456">
        <ele>336</ele>
        <time>2013-04-11T09:58:31Z</time>
      </trkpt>
      <trkpt lat="43.97369" lon="5.11474">
        <ele>333</ele>
        <time>2013-04-11T09:58:48Z</time>
      </trkpt>
      <trkpt lat="43.97359" lon="5.11484">
        <ele>332</ele>
        <time>2013-04-11T09:59:02Z</time>
      </trkpt>
      <trkpt lat="43.97347" lon="5.11496">
        <ele>330</ele>
        <time>2013-04-11T09:59:15Z</time>
      </trkpt>
      <trkpt lat="43.97342" lon="5.11502">
        <ele>330</ele>
        <time>2013-04-11T09:59:22Z</time>
      </trkpt>
      <trkpt lat="43.97328" lon="5.11516">
        <ele>329</ele>
        <time>2013-04-11T09:59:41Z</time>
      </trkpt>
      <trkpt lat="43.9732" lon="5.1153">
        <ele>327</ele>
        <time>2013-04-11T09:59:57Z</time>
      </trkpt>
      <trkpt lat="43.97311" lon="5.11545">
        <ele>326</ele>
        <time>2013-04-11T10:00:14Z</time>
      </trkpt>
      <trkpt lat="43.97305" lon="5.11559">
        <ele>324</ele>
        <time>2013-04-11T10:00:29Z</time>
      </trkpt>
      <trkpt lat="43.97302" lon="5.11562">
        <ele>324</ele>
        <time>2013-04-11T10:00:33Z</time>
      </trkpt>
      <trkpt lat="43.97297" lon="5.11573">
        <ele>322</ele>
        <time>2013-04-11T10:00:45Z</time>
      </trkpt>
      <trkpt lat="43.97292" lon="5.11581">
        <ele>321</ele>
        <time>2013-04-11T10:00:55Z</time>
      </trkpt>
      <trkpt lat="43.97287" lon="5.1159">
        <ele>320</ele>
        <time>2013-04-11T10:01:06Z</time>
      </trkpt>
      <trkpt lat="43.97284" lon="5.11606">
        <ele>318</ele>
        <time>2013-04-11T10:01:21Z</time>
      </trkpt>
      <trkpt lat="43.97271" lon="5.11621">
        <ele>316</ele>
        <time>2013-04-11T10:01:39Z</time>
      </trkpt>
      <trkpt lat="43.97264" lon="5.11635">
        <ele>314</ele>
        <time>2013-04-11T10:01:55Z</time>
      </trkpt>
      <trkpt lat="43.97257" lon="5.11646">
        <ele>313</ele>
        <time>2013-04-11T10:02:09Z</time>
      </trkpt>
      <trkpt lat="43.97249" lon="5.11659">
        <ele>311</ele>
        <time>2013-04-11T10:02:25Z</time>
      </trkpt>
      <trkpt lat="43.97246" lon="5.11676">
        <ele>309</ele>
        <time>2013-04-11T10:02:42Z</time>
      </trkpt>
      <trkpt lat="43.9725" lon="5.11687">
        <ele>307</ele>
        <time>2013-04-11T10:02:58Z</time>
      </trkpt>
      <trkpt lat="43.97254" lon="5.11702">
        <ele>305</ele>
        <time>2013-04-11T10:03:13Z</time>
      </trkpt>
      <trkpt lat="43.97249" lon="5.1172">
        <ele>304</ele>
        <time>2013-04-11T10:03:31Z</time>
      </trkpt>
      <trkpt lat="43.97243" lon="5.11723">
        <ele>305</ele>
        <time>2013-04-11T10:03:45Z</time>
      </trkpt>
      <trkpt lat="43.97232" lon="5.1173">
        <ele>306</ele>
        <time>2013-04-11T10:03:59Z</time>
      </trkpt>
      <trkpt lat="43.9722" lon="5.11738">
        <ele>307</ele>
        <time>2013-04-11T10:04:15Z</time>
      </trkpt>
      <trkpt lat="43.97208" lon="5.11748">
        <ele>308</ele>
        <time>2013-04-11T10:04:30Z</time>
      </trkpt>
      <trkpt lat="43.97194" lon="5.11755">
        <ele>310</ele>
        <time>2013-04-11T10:04:48Z</time>
      </trkpt>
      <trkpt lat="43.97179" lon="5.11758">
        <ele>312</ele>
        <time>2013-04-11T10:05:08Z</time>
      </trkpt>
      <trkpt lat="43.97181" lon="5.1176">
        <ele>312</ele>
        <time>2013-04-11T10:05:43Z</time>
      </trkpt>
      <trkpt lat="43.9718" lon="5.1176">
        <ele>312</ele>
        <time>2013-04-11T10:06:24Z</time>
      </trkpt>
      <trkpt lat="43.97167" lon="5.11763">
        <ele>312</ele>
        <time>2013-04-11T10:07:25Z</time>
      </trkpt>
      <trkpt lat="43.97154" lon="5.11765">
        <ele>314</ele>
        <time>2013-04-11T10:07:44Z</time>
      </trkpt>
      <trkpt lat="43.97147" lon="5.11768">
        <ele>314</ele>
        <time>2013-04-11T10:07:59Z</time>
      </trkpt>
      <trkpt lat="43.97146" lon="5.1177">
        <ele>314</ele>
        <time>2013-04-11T10:08:01Z</time>
      </trkpt>
      <trkpt lat="43.97139" lon="5.11784">
        <ele>314</ele>
        <time>2013-04-11T10:08:15Z</time>
      </trkpt>
      <trkpt lat="43.97133" lon="5.118">
        <ele>314</ele>
        <time>2013-04-11T10:08:30Z</time>
      </trkpt>
      <trkpt lat="43.97124" lon="5.11821">
        <ele>313</ele>
        <time>2013-04-11T10:08:47Z</time>
      </trkpt>
      <trkpt lat="43.97116" lon="5.11824">
        <ele>313</ele>
        <time>2013-04-11T10:08:53Z</time>
      </trkpt>
      <trkpt lat="43.97099" lon="5.11826">
        <ele>313</ele>
        <time>2013-04-11T10:09:11Z</time>
      </trkpt>
      <trkpt lat="43.97075" lon="5.11831">
        <ele>314</ele>
        <time>2013-04-11T10:09:31Z</time>
      </trkpt>
      <trkpt lat="43.9706" lon="5.11846">
        <ele>315</ele>
        <time>2013-04-11T10:09:52Z</time>
      </trkpt>
      <trkpt lat="43.97056" lon="5.1186">
        <ele>315</ele>
        <time>2013-04-11T10:10:05Z</time>
      </trkpt>
      <trkpt lat="43.97058" lon="5.11886">
        <ele>316</ele>
        <time>2013-04-11T10:10:22Z</time>
      </trkpt>
      <trkpt lat="43.97059" lon="5.11911">
        <ele>318</ele>
        <time>2013-04-11T10:10:42Z</time>
      </trkpt>
      <trkpt lat="43.97063" lon="5.11941">
        <ele>319</ele>
        <time>2013-04-11T10:11:03Z</time>
      </trkpt>
      <trkpt lat="43.97055" lon="5.11968">
        <ele>320</ele>
        <time>2013-04-11T10:11:23Z</time>
      </trkpt>
      <trkpt lat="43.97045" lon="5.11973">
        <ele>324</ele>
        <time>2013-04-11T10:11:41Z</time>
      </trkpt>
      <trkpt lat="43.97039" lon="5.11988">
        <ele>326</ele>
        <time>2013-04-11T10:11:56Z</time>
      </trkpt>
      <trkpt lat="43.97037" lon="5.12002">
        <ele>328</ele>
        <time>2013-04-11T10:12:11Z</time>
      </trkpt>
      <trkpt lat="43.97033" lon="5.1202">
        <ele>330</ele>
        <time>2013-04-11T10:12:26Z</time>
      </trkpt>
      <trkpt lat="43.97027" lon="5.12029">
        <ele>332</ele>
        <time>2013-04-11T10:12:41Z</time>
      </trkpt>
      <trkpt lat="43.97018" lon="5.12038">
        <ele>334</ele>
        <time>2013-04-11T10:12:55Z</time>
      </trkpt>
      <trkpt lat="43.97012" lon="5.12051">
        <ele>335</ele>
        <time>2013-04-11T10:13:10Z</time>
      </trkpt>
      <trkpt lat="43.97002" lon="5.12067">
        <ele>336</ele>
        <time>2013-04-11T10:13:28Z</time>
      </trkpt>
      <trkpt lat="43.96994" lon="5.12082">
        <ele>337</ele>
        <time>2013-04-11T10:13:46Z</time>
      </trkpt>
      <trkpt lat="43.96986" lon="5.12087">
        <ele>337</ele>
        <time>2013-04-11T10:13:51Z</time>
      </trkpt>
      <trkpt lat="43.9698" lon="5.12105">
        <ele>338</ele>
        <time>2013-04-11T10:14:07Z</time>
      </trkpt>
      <trkpt lat="43.96977" lon="5.12123">
        <ele>339</ele>
        <time>2013-04-11T10:14:19Z</time>
      </trkpt>
      <trkpt lat="43.96968" lon="5.12142">
        <ele>339</ele>
        <time>2013-04-11T10:14:36Z</time>
      </trkpt>
      <trkpt lat="43.96959" lon="5.1215">
        <ele>339</ele>
        <time>2013-04-11T10:14:45Z</time>
      </trkpt>
      <trkpt lat="43.96963" lon="5.12161">
        <ele>339</ele>
        <time>2013-04-11T10:14:52Z</time>
      </trkpt>
      <trkpt lat="43.96955" lon="5.12168">
        <ele>339</ele>
        <time>2013-04-11T10:15:00Z</time>
      </trkpt>
      <trkpt lat="43.96955" lon="5.1218">
        <ele>339</ele>
        <time>2013-04-11T10:15:09Z</time>
      </trkpt>
      <trkpt lat="43.96953" lon="5.12183">
        <ele>339</ele>
        <time>2013-04-11T10:15:11Z</time>
      </trkpt>
      <trkpt lat="43.96952" lon="5.12186">
        <ele>340</ele>
        <time>2013-04-11T10:15:14Z</time>
      </trkpt>
      <trkpt lat="43.96948" lon="5.12199">
        <ele>339</ele>
        <time>2013-04-11T10:15:25Z</time>
      </trkpt>
      <trkpt lat="43.9694" lon="5.12216">
        <ele>340</ele>
        <time>2013-04-11T10:15:41Z</time>
      </trkpt>
      <trkpt lat="43.96943" lon="5.12232">
        <ele>340</ele>
        <time>2013-04-11T10:15:51Z</time>
      </trkpt>
      <trkpt lat="43.96946" lon="5.12246">
        <ele>340</ele>
        <time>2013-04-11T10:16:00Z</time>
      </trkpt>
      <trkpt lat="43.96947" lon="5.12261">
        <ele>340</ele>
        <time>2013-04-11T10:16:10Z</time>
      </trkpt>
      <trkpt lat="43.96948" lon="5.12266">
        <ele>340</ele>
        <time>2013-04-11T10:16:13Z</time>
      </trkpt>
      <trkpt lat="43.96947" lon="5.12274">
        <ele>339</ele>
        <time>2013-04-11T10:16:19Z</time>
      </trkpt>
      <trkpt lat="43.96944" lon="5.12286">
        <ele>340</ele>
        <time>2013-04-11T10:16:29Z</time>
      </trkpt>
      <trkpt lat="43.9694" lon="5.12294">
        <ele>340</ele>
        <time>2013-04-11T10:16:36Z</time>
      </trkpt>
      <trkpt lat="43.96936" lon="5.12301">
        <ele>340</ele>
        <time>2013-04-11T10:16:41Z</time>
      </trkpt>
      <trkpt lat="43.9693" lon="5.12315">
        <ele>340</ele>
        <time>2013-04-11T10:16:53Z</time>
      </trkpt>
      <trkpt lat="43.96926" lon="5.12317">
        <ele>340</ele>
        <time>2013-04-11T10:16:55Z</time>
      </trkpt>
      <trkpt lat="43.96922" lon="5.12326">
        <ele>340</ele>
        <time>2013-04-11T10:17:02Z</time>
      </trkpt>
      <trkpt lat="43.96915" lon="5.12341">
        <ele>341</ele>
        <time>2013-04-11T10:17:16Z</time>
      </trkpt>
      <trkpt lat="43.96898" lon="5.12354">
        <ele>343</ele>
        <time>2013-04-11T10:17:35Z</time>
      </trkpt>
      <trkpt lat="43.96899" lon="5.12368">
        <ele>345</ele>
        <time>2013-04-11T10:17:51Z</time>
      </trkpt>
      <trkpt lat="43.96887" lon="5.12381">
        <ele>347</ele>
        <time>2013-04-11T10:18:08Z</time>
      </trkpt>
      <trkpt lat="43.96869" lon="5.12384">
        <ele>350</ele>
        <time>2013-04-11T10:18:27Z</time>
      </trkpt>
      <trkpt lat="43.96862" lon="5.12395">
        <ele>350</ele>
        <time>2013-04-11T10:18:41Z</time>
      </trkpt>
      <trkpt lat="43.9686" lon="5.12399">
        <ele>350</ele>
        <time>2013-04-11T10:18:46Z</time>
      </trkpt>
      <trkpt lat="43.96857" lon="5.124">
        <ele>350</ele>
        <time>2013-04-11T10:18:49Z</time>
      </trkpt>
      <trkpt lat="43.96854" lon="5.12411">
        <ele>350</ele>
        <time>2013-04-11T10:19:03Z</time>
      </trkpt>
      <trkpt lat="43.96855" lon="5.12411">
        <ele>350</ele>
        <time>2013-04-11T10:19:19Z</time>
      </trkpt>
      <trkpt lat="43.96855" lon="5.12415">
        <ele>350</ele>
        <time>2013-04-11T10:20:30Z</time>
      </trkpt>
      <trkpt lat="43.96854" lon="5.12421">
        <ele>349</ele>
        <time>2013-04-11T10:21:25Z</time>
      </trkpt>
      <trkpt lat="43.96853" lon="5.12426">
        <ele>349</ele>
        <time>2013-04-11T10:21:28Z</time>
      </trkpt>
      <trkpt lat="43.96845" lon="5.12456">
        <ele>349</ele>
        <time>2013-04-11T10:21:49Z</time>
      </trkpt>
      <trkpt lat="43.96838" lon="5.12479">
        <ele>349</ele>
        <time>2013-04-11T10:22:06Z</time>
      </trkpt>
      <trkpt lat="43.96833" lon="5.12496">
        <ele>350</ele>
        <time>2013-04-11T10:22:21Z</time>
      </trkpt>
      <trkpt lat="43.96835" lon="5.12518">
        <ele>351</ele>
        <time>2013-04-11T10:22:39Z</time>
      </trkpt>
      <trkpt lat="43.96837" lon="5.12534">
        <ele>352</ele>
        <time>2013-04-11T10:22:51Z</time>
      </trkpt>
      <trkpt lat="43.96838" lon="5.12547">
        <ele>352</ele>
        <time>2013-04-11T10:23:01Z</time>
      </trkpt>
      <trkpt lat="43.96837" lon="5.12568">
        <ele>353</ele>
        <time>2013-04-11T10:23:17Z</time>
      </trkpt>
      <trkpt lat="43.96834" lon="5.12587">
        <ele>355</ele>
        <time>2013-04-11T10:23:34Z</time>
      </trkpt>
      <trkpt lat="43.96834" lon="5.1259">
        <ele>355</ele>
        <time>2013-04-11T10:23:37Z</time>
      </trkpt>
      <trkpt lat="43.96835" lon="5.12608">
        <ele>357</ele>
        <time>2013-04-11T10:23:52Z</time>
      </trkpt>
      <trkpt lat="43.96834" lon="5.12621">
        <ele>359</ele>
        <time>2013-04-11T10:24:05Z</time>
      </trkpt>
      <trkpt lat="43.96827" lon="5.12638">
        <ele>360</ele>
        <time>2013-04-11T10:24:21Z</time>
      </trkpt>
      <trkpt lat="43.96819" lon="5.12656">
        <ele>362</ele>
        <time>2013-04-11T10:24:38Z</time>
      </trkpt>
      <trkpt lat="43.96818" lon="5.12658">
        <ele>362</ele>
        <time>2013-04-11T10:24:39Z</time>
      </trkpt>
      <trkpt lat="43.96816" lon="5.1266">
        <ele>363</ele>
        <time>2013-04-11T10:24:41Z</time>
      </trkpt>
      <trkpt lat="43.96815" lon="5.12668">
        <ele>364</ele>
        <time>2013-04-11T10:24:52Z</time>
      </trkpt>
      <trkpt lat="43.96813" lon="5.12677">
        <ele>364</ele>
        <time>2013-04-11T10:25:05Z</time>
      </trkpt>
      <trkpt lat="43.96808" lon="5.12687">
        <ele>365</ele>
        <time>2013-04-11T10:25:24Z</time>
      </trkpt>
      <trkpt lat="43.96801" lon="5.12698">
        <ele>366</ele>
        <time>2013-04-11T10:25:39Z</time>
      </trkpt>
      <trkpt lat="43.9679" lon="5.12705">
        <ele>368</ele>
        <time>2013-04-11T10:25:53Z</time>
      </trkpt>
      <trkpt lat="43.96779" lon="5.12714">
        <ele>369</ele>
        <time>2013-04-11T10:26:06Z</time>
      </trkpt>
      <trkpt lat="43.96775" lon="5.12716">
        <ele>370</ele>
        <time>2013-04-11T10:26:11Z</time>
      </trkpt>
      <trkpt lat="43.96765" lon="5.12728">
        <ele>372</ele>
        <time>2013-04-11T10:26:29Z</time>
      </trkpt>
      <trkpt lat="43.96751" lon="5.12744">
        <ele>373</ele>
        <time>2013-04-11T10:26:46Z</time>
      </trkpt>
      <trkpt lat="43.96744" lon="5.12755">
        <ele>375</ele>
        <time>2013-04-11T10:27:00Z</time>
      </trkpt>
      <trkpt lat="43.96734" lon="5.12761">
        <ele>376</ele>
        <time>2013-04-11T10:27:16Z</time>
      </trkpt>
      <trkpt lat="43.96725" lon="5.12766">
        <ele>377</ele>
        <time>2013-04-11T10:27:29Z</time>
      </trkpt>
      <trkpt lat="43.96711" lon="5.12781">
        <ele>378</ele>
        <time>2013-04-11T10:27:49Z</time>
      </trkpt>
      <trkpt lat="43.967" lon="5.12791">
        <ele>379</ele>
        <time>2013-04-11T10:28:05Z</time>
      </trkpt>
      <trkpt lat="43.96689" lon="5.12796">
        <ele>381</ele>
        <time>2013-04-11T10:28:19Z</time>
      </trkpt>
      <trkpt lat="43.96683" lon="5.12801">
        <ele>381</ele>
        <time>2013-04-11T10:28:26Z</time>
      </trkpt>
      <trkpt lat="43.96671" lon="5.12807">
        <ele>383</ele>
        <time>2013-04-11T10:28:40Z</time>
      </trkpt>
      <trkpt lat="43.96657" lon="5.12819">
        <ele>384</ele>
        <time>2013-04-11T10:28:57Z</time>
      </trkpt>
      <trkpt lat="43.96643" lon="5.12825">
        <ele>386</ele>
        <time>2013-04-11T10:29:15Z</time>
      </trkpt>
      <trkpt lat="43.9663" lon="5.12834">
        <ele>387</ele>
        <time>2013-04-11T10:29:33Z</time>
      </trkpt>
      <trkpt lat="43.9662" lon="5.12845">
        <ele>387</ele>
        <time>2013-04-11T10:29:48Z</time>
      </trkpt>
      <trkpt lat="43.96606" lon="5.12856">
        <ele>387</ele>
        <time>2013-04-11T10:30:05Z</time>
      </trkpt>
      <trkpt lat="43.96598" lon="5.12863">
        <ele>388</ele>
        <time>2013-04-11T10:30:14Z</time>
      </trkpt>
      <trkpt lat="43.96587" lon="5.12872">
        <ele>388</ele>
        <time>2013-04-11T10:30:26Z</time>
      </trkpt>
      <trkpt lat="43.96581" lon="5.12878">
        <ele>388</ele>
        <time>2013-04-11T10:30:33Z</time>
      </trkpt>
      <trkpt lat="43.96568" lon="5.12896">
        <ele>389</ele>
        <time>2013-04-11T10:30:53Z</time>
      </trkpt>
      <trkpt lat="43.96561" lon="5.1291">
        <ele>391</ele>
        <time>2013-04-11T10:31:06Z</time>
      </trkpt>
      <trkpt lat="43.96558" lon="5.12921">
        <ele>392</ele>
        <time>2013-04-11T10:31:19Z</time>
      </trkpt>
      <trkpt lat="43.96566" lon="5.12939">
        <ele>393</ele>
        <time>2013-04-11T10:31:38Z</time>
      </trkpt>
      <trkpt lat="43.96579" lon="5.12942">
        <ele>395</ele>
        <time>2013-04-11T10:31:54Z</time>
      </trkpt>
      <trkpt lat="43.9659" lon="5.12953">
        <ele>397</ele>
        <time>2013-04-11T10:32:09Z</time>
      </trkpt>
      <trkpt lat="43.96581" lon="5.12958">
        <ele>398</ele>
        <time>2013-04-11T10:32:23Z</time>
      </trkpt>
      <trkpt lat="43.96569" lon="5.12964">
        <ele>399</ele>
        <time>2013-04-11T10:32:38Z</time>
      </trkpt>
      <trkpt lat="43.96554" lon="5.12977">
        <ele>401</ele>
        <time>2013-04-11T10:33:01Z</time>
      </trkpt>
      <trkpt lat="43.96558" lon="5.12992">
        <ele>403</ele>
        <time>2013-04-11T10:33:16Z</time>
      </trkpt>
      <trkpt lat="43.96572" lon="5.13006">
        <ele>405</ele>
        <time>2013-04-11T10:33:36Z</time>
      </trkpt>
      <trkpt lat="43.96577" lon="5.13024">
        <ele>407</ele>
        <time>2013-04-11T10:33:58Z</time>
      </trkpt>
      <trkpt lat="43.9657" lon="5.13036">
        <ele>408</ele>
        <time>2013-04-11T10:34:14Z</time>
      </trkpt>
      <trkpt lat="43.96565" lon="5.13037">
        <ele>409</ele>
        <time>2013-04-11T10:34:34Z</time>
      </trkpt>
      <trkpt lat="43.96553" lon="5.13037">
        <ele>410</ele>
        <time>2013-04-11T10:34:56Z</time>
      </trkpt>
      <trkpt lat="43.96541" lon="5.13038">
        <ele>411</ele>
        <time>2013-04-11T10:35:11Z</time>
      </trkpt>
      <trkpt lat="43.96531" lon="5.13038">
        <ele>412</ele>
        <time>2013-04-11T10:35:22Z</time>
      </trkpt>
      <trkpt lat="43.96513" lon="5.13034">
        <ele>413</ele>
        <time>2013-04-11T10:35:41Z</time>
      </trkpt>
      <trkpt lat="43.96511" lon="5.13033">
        <ele>413</ele>
        <time>2013-04-11T10:35:43Z</time>
      </trkpt>
      <trkpt lat="43.96508" lon="5.13035">
        <ele>413</ele>
        <time>2013-04-11T10:36:03Z</time>
      </trkpt>
      <trkpt lat="43.96506" lon="5.13039">
        <ele>412</ele>
        <time>2013-04-11T10:42:42Z</time>
      </trkpt>
      <trkpt lat="43.965" lon="5.13053">
        <ele>413</ele>
        <time>2013-04-11T10:43:03Z</time>
      </trkpt>
      <trkpt lat="43.96486" lon="5.13055">
        <ele>414</ele>
        <time>2013-04-11T10:43:19Z</time>
      </trkpt>
      <trkpt lat="43.96475" lon="5.13065">
        <ele>415</ele>
        <time>2013-04-11T10:43:35Z</time>
      </trkpt>
      <trkpt lat="43.96462" lon="5.13073">
        <ele>417</ele>
        <time>2013-04-11T10:43:53Z</time>
      </trkpt>
      <trkpt lat="43.96457" lon="5.13074">
        <ele>417</ele>
        <time>2013-04-11T10:43:58Z</time>
      </trkpt>
      <trkpt lat="43.96438" lon="5.13077">
        <ele>418</ele>
        <time>2013-04-11T10:44:16Z</time>
      </trkpt>
      <trkpt lat="43.96419" lon="5.13082">
        <ele>420</ele>
        <time>2013-04-11T10:44:38Z</time>
      </trkpt>
      <trkpt lat="43.96406" lon="5.13084">
        <ele>421</ele>
        <time>2013-04-11T10:44:55Z</time>
      </trkpt>
      <trkpt lat="43.96392" lon="5.13092">
        <ele>423</ele>
        <time>2013-04-11T10:45:12Z</time>
      </trkpt>
      <trkpt lat="43.96374" lon="5.13091">
        <ele>425</ele>
        <time>2013-04-11T10:45:30Z</time>
      </trkpt>
      <trkpt lat="43.96367" lon="5.13091">
        <ele>426</ele>
        <time>2013-04-11T10:45:37Z</time>
      </trkpt>
      <trkpt lat="43.96353" lon="5.13093">
        <ele>427</ele>
        <time>2013-04-11T10:45:52Z</time>
      </trkpt>
      <trkpt lat="43.96344" lon="5.13099">
        <ele>429</ele>
        <time>2013-04-11T10:46:07Z</time>
      </trkpt>
      <trkpt lat="43.96332" lon="5.13104">
        <ele>430</ele>
        <time>2013-04-11T10:46:23Z</time>
      </trkpt>
      <trkpt lat="43.96318" lon="5.13106">
        <ele>433</ele>
        <time>2013-04-11T10:46:43Z</time>
      </trkpt>
      <trkpt lat="43.96301" lon="5.13108">
        <ele>435</ele>
        <time>2013-04-11T10:47:04Z</time>
      </trkpt>
      <trkpt lat="43.96287" lon="5.13112">
        <ele>437</ele>
        <time>2013-04-11T10:47:22Z</time>
      </trkpt>
      <trkpt lat="43.9627" lon="5.1312">
        <ele>439</ele>
        <time>2013-04-11T10:47:39Z</time>
      </trkpt>
      <trkpt lat="43.96254" lon="5.13123">
        <ele>441</ele>
        <time>2013-04-11T10:48:00Z</time>
      </trkpt>
      <trkpt lat="43.96239" lon="5.13131">
        <ele>443</ele>
        <time>2013-04-11T10:48:20Z</time>
      </trkpt>
      <trkpt lat="43.96222" lon="5.13141">
        <ele>446</ele>
        <time>2013-04-11T10:48:42Z</time>
      </trkpt>
      <trkpt lat="43.96204" lon="5.13138">
        <ele>448</ele>
        <time>2013-04-11T10:49:06Z</time>
      </trkpt>
      <trkpt lat="43.96186" lon="5.13145">
        <ele>451</ele>
        <time>2013-04-11T10:49:30Z</time>
      </trkpt>
      <trkpt lat="43.96174" lon="5.13153">
        <ele>453</ele>
        <time>2013-04-11T10:49:49Z</time>
      </trkpt>
      <trkpt lat="43.96171" lon="5.13153">
        <ele>453</ele>
        <time>2013-04-11T10:49:52Z</time>
      </trkpt>
      <trkpt lat="43.96155" lon="5.1315">
        <ele>456</ele>
        <time>2013-04-11T10:50:13Z</time>
      </trkpt>
      <trkpt lat="43.96143" lon="5.13152">
        <ele>458</ele>
        <time>2013-04-11T10:50:29Z</time>
      </trkpt>
      <trkpt lat="43.96134" lon="5.13158">
        <ele>460</ele>
        <time>2013-04-11T10:50:42Z</time>
      </trkpt>
      <trkpt lat="43.96121" lon="5.13158">
        <ele>462</ele>
        <time>2013-04-11T10:50:57Z</time>
      </trkpt>
      <trkpt lat="43.96109" lon="5.13161">
        <ele>463</ele>
        <time>2013-04-11T10:51:13Z</time>
      </trkpt>
      <trkpt lat="43.96101" lon="5.1316">
        <ele>464</ele>
        <time>2013-04-11T10:51:24Z</time>
      </trkpt>
      <trkpt lat="43.96088" lon="5.1317">
        <ele>467</ele>
        <time>2013-04-11T10:51:44Z</time>
      </trkpt>
      <trkpt lat="43.96074" lon="5.13173">
        <ele>469</ele>
        <time>2013-04-11T10:52:00Z</time>
      </trkpt>
      <trkpt lat="43.96063" lon="5.13179">
        <ele>471</ele>
        <time>2013-04-11T10:52:19Z</time>
      </trkpt>
      <trkpt lat="43.96053" lon="5.13187">
        <ele>473</ele>
        <time>2013-04-11T10:52:34Z</time>
      </trkpt>
      <trkpt lat="43.96041" lon="5.1319">
        <ele>475</ele>
        <time>2013-04-11T10:52:49Z</time>
      </trkpt>
      <trkpt lat="43.96029" lon="5.13191">
        <ele>476</ele>
        <time>2013-04-11T10:53:05Z</time>
      </trkpt>
      <trkpt lat="43.96028" lon="5.13191">
        <ele>476</ele>
        <time>2013-04-11T10:53:07Z</time>
      </trkpt>
      <trkpt lat="43.96021" lon="5.13197">
        <ele>477</ele>
        <time>2013-04-11T10:53:18Z</time>
      </trkpt>
      <trkpt lat="43.96015" lon="5.132">
        <ele>478</ele>
        <time>2013-04-11T10:53:25Z</time>
      </trkpt>
      <trkpt lat="43.96008" lon="5.13204">
        <ele>479</ele>
        <time>2013-04-11T10:53:37Z</time>
      </trkpt>
      <trkpt lat="43.95997" lon="5.13209">
        <ele>480</ele>
        <time>2013-04-11T10:53:53Z</time>
      </trkpt>
      <trkpt lat="43.95983" lon="5.13214">
        <ele>482</ele>
        <time>2013-04-11T10:54:13Z</time>
      </trkpt>
      <trkpt lat="43.95966" lon="5.13218">
        <ele>484</ele>
        <time>2013-04-11T10:54:31Z</time>
      </trkpt>
      <trkpt lat="43.95949" lon="5.13219">
        <ele>485</ele>
        <time>2013-04-11T10:54:50Z</time>
      </trkpt>
      <trkpt lat="43.95931" lon="5.13223">
        <ele>486</ele>
        <time>2013-04-11T10:55:10Z</time>
      </trkpt>
      <trkpt lat="43.95913" lon="5.13225">
        <ele>488</ele>
        <time>2013-04-11T10:55:30Z</time>
      </trkpt>
      <trkpt lat="43.95898" lon="5.13229">
        <ele>489</ele>
        <time>2013-04-11T10:55:49Z</time>
      </trkpt>
      <trkpt lat="43.95881" lon="5.13231">
        <ele>491</ele>
        <time>2013-04-11T10:56:10Z</time>
      </trkpt>
      <trkpt lat="43.95881" lon="5.1323">
        <ele>490</ele>
        <time>2013-04-11T10:56:36Z</time>
      </trkpt>
      <trkpt lat="43.9588" lon="5.13231">
        <ele>491</ele>
        <time>2013-04-11T10:56:57Z</time>
      </trkpt>
      <trkpt lat="43.95877" lon="5.13231">
        <ele>491</ele>
        <time>2013-04-11T10:57:10Z</time>
      </trkpt>
      <trkpt lat="43.95854" lon="5.13227">
        <ele>491</ele>
        <time>2013-04-11T10:57:33Z</time>
      </trkpt>
      <trkpt lat="43.95833" lon="5.13223">
        <ele>492</ele>
        <time>2013-04-11T10:57:53Z</time>
      </trkpt>
      <trkpt lat="43.9581" lon="5.13219">
        <ele>492</ele>
        <time>2013-04-11T10:58:19Z</time>
      </trkpt>
      <trkpt lat="43.95794" lon="5.13225">
        <ele>493</ele>
        <time>2013-04-11T10:58:38Z</time>
      </trkpt>
      <trkpt lat="43.95783" lon="5.13237">
        <ele>493</ele>
        <time>2013-04-11T10:58:52Z</time>
      </trkpt>
      <trkpt lat="43.95777" lon="5.13254">
        <ele>493</ele>
        <time>2013-04-11T10:59:06Z</time>
      </trkpt>
      <trkpt lat="43.95753" lon="5.13267">
        <ele>494</ele>
        <time>2013-04-11T10:59:29Z</time>
      </trkpt>
      <trkpt lat="43.95737" lon="5.1327">
        <ele>496</ele>
        <time>2013-04-11T10:59:46Z</time>
      </trkpt>
      <trkpt lat="43.95718" lon="5.13269">
        <ele>498</ele>
        <time>2013-04-11T11:00:07Z</time>
      </trkpt>
      <trkpt lat="43.95711" lon="5.13272">
        <ele>499</ele>
        <time>2013-04-11T11:00:17Z</time>
      </trkpt>
      <trkpt lat="43.95702" lon="5.13283">
        <ele>500</ele>
        <time>2013-04-11T11:00:33Z</time>
      </trkpt>
      <trkpt lat="43.9569" lon="5.13297">
        <ele>502</ele>
        <time>2013-04-11T11:00:53Z</time>
      </trkpt>
      <trkpt lat="43.95681" lon="5.13312">
        <ele>503</ele>
        <time>2013-04-11T11:01:07Z</time>
      </trkpt>
      <trkpt lat="43.95667" lon="5.13324">
        <ele>505</ele>
        <time>2013-04-11T11:01:26Z</time>
      </trkpt>
      <trkpt lat="43.95652" lon="5.1334">
        <ele>508</ele>
        <time>2013-04-11T11:01:50Z</time>
      </trkpt>
      <trkpt lat="43.95639" lon="5.13351">
        <ele>509</ele>
        <time>2013-04-11T11:02:07Z</time>
      </trkpt>
      <trkpt lat="43.95628" lon="5.13363">
        <ele>511</ele>
        <time>2013-04-11T11:02:23Z</time>
      </trkpt>
      <trkpt lat="43.95619" lon="5.13378">
        <ele>512</ele>
        <time>2013-04-11T11:02:42Z</time>
      </trkpt>
      <trkpt lat="43.95609" lon="5.13395">
        <ele>514</ele>
        <time>2013-04-11T11:03:01Z</time>
      </trkpt>
      <trkpt lat="43.95603" lon="5.13422">
        <ele>516</ele>
        <time>2013-04-11T11:03:26Z</time>
      </trkpt>
      <trkpt lat="43.95595" lon="5.13439">
        <ele>518</ele>
        <time>2013-04-11T11:03:45Z</time>
      </trkpt>
      <trkpt lat="43.95589" lon="5.13452">
        <ele>520</ele>
        <time>2013-04-11T11:04:00Z</time>
      </trkpt>
      <trkpt lat="43.95585" lon="5.13468">
        <ele>521</ele>
        <time>2013-04-11T11:04:15Z</time>
      </trkpt>
      <trkpt lat="43.95575" lon="5.13489">
        <ele>523</ele>
        <time>2013-04-11T11:04:38Z</time>
      </trkpt>
      <trkpt lat="43.95567" lon="5.13508">
        <ele>525</ele>
        <time>2013-04-11T11:04:59Z</time>
      </trkpt>
      <trkpt lat="43.95564" lon="5.13528">
        <ele>527</ele>
        <time>2013-04-11T11:05:18Z</time>
      </trkpt>
      <trkpt lat="43.95558" lon="5.13546">
        <ele>528</ele>
        <time>2013-04-11T11:05:36Z</time>
      </trkpt>
      <trkpt lat="43.95551" lon="5.13563">
        <ele>530</ele>
        <time>2013-04-11T11:05:54Z</time>
      </trkpt>
      <trkpt lat="43.95545" lon="5.13578">
        <ele>532</ele>
        <time>2013-04-11T11:06:14Z</time>
      </trkpt>
      <trkpt lat="43.95535" lon="5.13591">
        <ele>534</ele>
        <time>2013-04-11T11:06:34Z</time>
      </trkpt>
      <trkpt lat="43.95525" lon="5.13602">
        <ele>536</ele>
        <time>2013-04-11T11:06:52Z</time>
      </trkpt>
      <trkpt lat="43.95523" lon="5.13608">
        <ele>537</ele>
        <time>2013-04-11T11:07:00Z</time>
      </trkpt>
      <trkpt lat="43.95522" lon="5.13628">
        <ele>538</ele>
        <time>2013-04-11T11:07:20Z</time>
      </trkpt>
      <trkpt lat="43.95518" lon="5.13646">
        <ele>541</ele>
        <time>2013-04-11T11:07:40Z</time>
      </trkpt>
      <trkpt lat="43.95515" lon="5.13663">
        <ele>543</ele>
        <time>2013-04-11T11:07:57Z</time>
      </trkpt>
      <trkpt lat="43.95511" lon="5.13684">
        <ele>544</ele>
        <time>2013-04-11T11:08:19Z</time>
      </trkpt>
      <trkpt lat="43.95507" lon="5.13697">
        <ele>546</ele>
        <time>2013-04-11T11:08:33Z</time>
      </trkpt>
      <trkpt lat="43.95505" lon="5.13717">
        <ele>548</ele>
        <time>2013-04-11T11:08:54Z</time>
      </trkpt>
      <trkpt lat="43.95498" lon="5.13739">
        <ele>550</ele>
        <time>2013-04-11T11:09:18Z</time>
      </trkpt>
      <trkpt lat="43.95495" lon="5.13755">
        <ele>552</ele>
        <time>2013-04-11T11:09:37Z</time>
      </trkpt>
      <trkpt lat="43.95492" lon="5.13776">
        <ele>555</ele>
        <time>2013-04-11T11:10:01Z</time>
      </trkpt>
      <trkpt lat="43.95491" lon="5.13792">
        <ele>557</ele>
        <time>2013-04-11T11:10:20Z</time>
      </trkpt>
      <trkpt lat="43.95484" lon="5.13811">
        <ele>560</ele>
        <time>2013-04-11T11:10:44Z</time>
      </trkpt>
      <trkpt lat="43.95483" lon="5.13832">
        <ele>562</ele>
        <time>2013-04-11T11:11:05Z</time>
      </trkpt>
      <trkpt lat="43.95488" lon="5.13845">
        <ele>564</ele>
        <time>2013-04-11T11:11:19Z</time>
      </trkpt>
      <trkpt lat="43.95495" lon="5.13845">
        <ele>566</ele>
        <time>2013-04-11T11:11:33Z</time>
      </trkpt>
      <trkpt lat="43.95504" lon="5.13846">
        <ele>568</ele>
        <time>2013-04-11T11:11:47Z</time>
      </trkpt>
      <trkpt lat="43.95514" lon="5.13856">
        <ele>569</ele>
        <time>2013-04-11T11:12:03Z</time>
      </trkpt>
      <trkpt lat="43.95517" lon="5.13865">
        <ele>570</ele>
        <time>2013-04-11T11:12:17Z</time>
      </trkpt>
      <trkpt lat="43.95518" lon="5.13876">
        <ele>571</ele>
        <time>2013-04-11T11:12:33Z</time>
      </trkpt>
      <trkpt lat="43.95519" lon="5.1389">
        <ele>573</ele>
        <time>2013-04-11T11:12:49Z</time>
      </trkpt>
      <trkpt lat="43.95517" lon="5.13903">
        <ele>574</ele>
        <time>2013-04-11T11:13:04Z</time>
      </trkpt>
      <trkpt lat="43.95514" lon="5.13918">
        <ele>576</ele>
        <time>2013-04-11T11:13:22Z</time>
      </trkpt>
      <trkpt lat="43.95509" lon="5.1393">
        <ele>579</ele>
        <time>2013-04-11T11:13:39Z</time>
      </trkpt>
      <trkpt lat="43.95498" lon="5.13946">
        <ele>582</ele>
        <time>2013-04-11T11:14:03Z</time>
      </trkpt>
      <trkpt lat="43.95486" lon="5.13953">
        <ele>584</ele>
        <time>2013-04-11T11:14:22Z</time>
      </trkpt>
      <trkpt lat="43.95478" lon="5.13962">
        <ele>586</ele>
        <time>2013-04-11T11:14:37Z</time>
      </trkpt>
      <trkpt lat="43.95477" lon="5.13977">
        <ele>588</ele>
        <time>2013-04-11T11:14:56Z</time>
      </trkpt>
      <trkpt lat="43.95473" lon="5.1399">
        <ele>589</ele>
        <time>2013-04-11T11:15:12Z</time>
      </trkpt>
      <trkpt lat="43.95473" lon="5.14007">
        <ele>592</ele>
        <time>2013-04-11T11:15:33Z</time>
      </trkpt>
      <trkpt lat="43.95472" lon="5.14016">
        <ele>593</ele>
        <time>2013-04-11T11:15:47Z</time>
      </trkpt>
      <trkpt lat="43.95474" lon="5.1403">
        <ele>595</ele>
        <time>2013-04-11T11:16:04Z</time>
      </trkpt>
      <trkpt lat="43.9548" lon="5.14041">
        <ele>597</ele>
        <time>2013-04-11T11:16:20Z</time>
      </trkpt>
      <trkpt lat="43.95483" lon="5.14052">
        <ele>598</ele>
        <time>2013-04-11T11:16:36Z</time>
      </trkpt>
      <trkpt lat="43.95484" lon="5.14066">
        <ele>600</ele>
        <time>2013-04-11T11:16:52Z</time>
      </trkpt>
      <trkpt lat="43.95483" lon="5.14075">
        <ele>602</ele>
        <time>2013-04-11T11:17:13Z</time>
      </trkpt>
      <trkpt lat="43.95487" lon="5.14075">
        <ele>601</ele>
        <time>2013-04-11T11:17:31Z</time>
      </trkpt>
      <trkpt lat="43.95486" lon="5.14075">
        <ele>601</ele>
        <time>2013-04-11T11:20:36Z</time>
      </trkpt>
      <trkpt lat="43.95487" lon="5.14073">
        <ele>601</ele>
        <time>2013-04-11T11:21:11Z</time>
      </trkpt>
      <trkpt lat="43.95486" lon="5.14076">
        <ele>600</ele>
        <time>2013-04-11T11:21:46Z</time>
      </trkpt>
      <trkpt lat="43.95484" lon="5.14074">
        <ele>601</ele>
        <time>2013-04-11T11:22:13Z</time>
      </trkpt>
      <trkpt lat="43.95484" lon="5.14074">
        <ele>600</ele>
        <time>2013-04-11T11:22:23Z</time>
      </trkpt>
      <trkpt lat="43.95488" lon="5.14073">
        <ele>601</ele>
        <time>2013-04-11T11:22:39Z</time>
      </trkpt>
      <trkpt lat="43.95485" lon="5.14073">
        <ele>600</ele>
        <time>2013-04-11T11:23:00Z</time>
      </trkpt>
      <trkpt lat="43.95476" lon="5.14077">
        <ele>600</ele>
        <time>2013-04-11T11:23:18Z</time>
      </trkpt>
      <trkpt lat="43.95465" lon="5.14084">
        <ele>602</ele>
        <time>2013-04-11T11:23:39Z</time>
      </trkpt>
      <trkpt lat="43.9546" lon="5.14094">
        <ele>604</ele>
        <time>2013-04-11T11:23:59Z</time>
      </trkpt>
      <trkpt lat="43.95454" lon="5.14102">
        <ele>607</ele>
        <time>2013-04-11T11:24:18Z</time>
      </trkpt>
      <trkpt lat="43.95448" lon="5.14114">
        <ele>609</ele>
        <time>2013-04-11T11:24:33Z</time>
      </trkpt>
      <trkpt lat="43.95442" lon="5.14126">
        <ele>611</ele>
        <time>2013-04-11T11:24:50Z</time>
      </trkpt>
      <trkpt lat="43.95437" lon="5.14139">
        <ele>612</ele>
        <time>2013-04-11T11:25:09Z</time>
      </trkpt>
      <trkpt lat="43.95427" lon="5.14151">
        <ele>614</ele>
        <time>2013-04-11T11:25:26Z</time>
      </trkpt>
      <trkpt lat="43.95417" lon="5.14171">
        <ele>617</ele>
        <time>2013-04-11T11:25:49Z</time>
      </trkpt>
      <trkpt lat="43.95411" lon="5.14183">
        <ele>619</ele>
        <time>2013-04-11T11:26:06Z</time>
      </trkpt>
      <trkpt lat="43.95405" lon="5.14195">
        <ele>622</ele>
        <time>2013-04-11T11:26:29Z</time>
      </trkpt>
      <trkpt lat="43.95392" lon="5.14212">
        <ele>625</ele>
        <time>2013-04-11T11:26:53Z</time>
      </trkpt>
      <trkpt lat="43.95383" lon="5.14222">
        <ele>627</ele>
        <time>2013-04-11T11:27:13Z</time>
      </trkpt>
      <trkpt lat="43.95389" lon="5.14231">
        <ele>630</ele>
        <time>2013-04-11T11:27:31Z</time>
      </trkpt>
      <trkpt lat="43.954" lon="5.14231">
        <ele>632</ele>
        <time>2013-04-11T11:27:51Z</time>
      </trkpt>
      <trkpt lat="43.95414" lon="5.14234">
        <ele>633</ele>
        <time>2013-04-11T11:28:09Z</time>
      </trkpt>
      <trkpt lat="43.95418" lon="5.14249">
        <ele>636</ele>
        <time>2013-04-11T11:28:30Z</time>
      </trkpt>
      <trkpt lat="43.95418" lon="5.14252">
        <ele>636</ele>
        <time>2013-04-11T11:28:48Z</time>
      </trkpt>
      <trkpt lat="43.95425" lon="5.14261">
        <ele>636</ele>
        <time>2013-04-11T11:31:16Z</time>
      </trkpt>
      <trkpt lat="43.95428" lon="5.14261">
        <ele>635</ele>
        <time>2013-04-11T11:31:22Z</time>
      </trkpt>
      <trkpt lat="43.95434" lon="5.14255">
        <ele>635</ele>
        <time>2013-04-11T11:31:32Z</time>
      </trkpt>
      <trkpt lat="43.95441" lon="5.14258">
        <ele>633</ele>
        <time>2013-04-11T11:31:48Z</time>
      </trkpt>
      <trkpt lat="43.95443" lon="5.14266">
        <ele>631</ele>
        <time>2013-04-11T11:32:02Z</time>
      </trkpt>
      <trkpt lat="43.95448" lon="5.1427">
        <ele>629</ele>
        <time>2013-04-11T11:32:21Z</time>
      </trkpt>
      <trkpt lat="43.95452" lon="5.14271">
        <ele>627</ele>
        <time>2013-04-11T11:32:34Z</time>
      </trkpt>
      <trkpt lat="43.95458" lon="5.1428">
        <ele>625</ele>
        <time>2013-04-11T11:32:53Z</time>
      </trkpt>
      <trkpt lat="43.95461" lon="5.14284">
        <ele>623</ele>
        <time>2013-04-11T11:33:08Z</time>
      </trkpt>
      <trkpt lat="43.95464" lon="5.14289">
        <ele>621</ele>
        <time>2013-04-11T11:33:21Z</time>
      </trkpt>
      <trkpt lat="43.95463" lon="5.14299">
        <ele>619</ele>
        <time>2013-04-11T11:33:38Z</time>
      </trkpt>
      <trkpt lat="43.95465" lon="5.14309">
        <ele>616</ele>
        <time>2013-04-11T11:33:56Z</time>
      </trkpt>
      <trkpt lat="43.95479" lon="5.14309">
        <ele>613</ele>
        <time>2013-04-11T11:34:16Z</time>
      </trkpt>
      <trkpt lat="43.95483" lon="5.14309">
        <ele>612</ele>
        <time>2013-04-11T11:34:19Z</time>
      </trkpt>
      <trkpt lat="43.95493" lon="5.14308">
        <ele>611</ele>
        <time>2013-04-11T11:34:30Z</time>
      </trkpt>
      <trkpt lat="43.95496" lon="5.14312">
        <ele>610</ele>
        <time>2013-04-11T11:34:39Z</time>
      </trkpt>
      <trkpt lat="43.95506" lon="5.14321">
        <ele>608</ele>
        <time>2013-04-11T11:34:51Z</time>
      </trkpt>
      <trkpt lat="43.95521" lon="5.14321">
        <ele>606</ele>
        <time>2013-04-11T11:35:04Z</time>
      </trkpt>
      <trkpt lat="43.95533" lon="5.14321">
        <ele>604</ele>
        <time>2013-04-11T11:35:21Z</time>
      </trkpt>
      <trkpt lat="43.95545" lon="5.14324">
        <ele>602</ele>
        <time>2013-04-11T11:35:38Z</time>
      </trkpt>
      <trkpt lat="43.95558" lon="5.14333">
        <ele>600</ele>
        <time>2013-04-11T11:35:57Z</time>
      </trkpt>
      <trkpt lat="43.95571" lon="5.14342">
        <ele>598</ele>
        <time>2013-04-11T11:36:15Z</time>
      </trkpt>
      <trkpt lat="43.95582" lon="5.1435">
        <ele>595</ele>
        <time>2013-04-11T11:36:30Z</time>
      </trkpt>
      <trkpt lat="43.95598" lon="5.14355">
        <ele>593</ele>
        <time>2013-04-11T11:36:47Z</time>
      </trkpt>
      <trkpt lat="43.95613" lon="5.1437">
        <ele>590</ele>
        <time>2013-04-11T11:37:07Z</time>
      </trkpt>
      <trkpt lat="43.9563" lon="5.14371">
        <ele>588</ele>
        <time>2013-04-11T11:37:27Z</time>
      </trkpt>
      <trkpt lat="43.95653" lon="5.14371">
        <ele>585</ele>
        <time>2013-04-11T11:37:48Z</time>
      </trkpt>
      <trkpt lat="43.95666" lon="5.14376">
        <ele>582</ele>
        <time>2013-04-11T11:38:05Z</time>
      </trkpt>
      <trkpt lat="43.95678" lon="5.14384">
        <ele>579</ele>
        <time>2013-04-11T11:38:32Z</time>
      </trkpt>
      <trkpt lat="43.95701" lon="5.14378">
        <ele>578</ele>
        <time>2013-04-11T11:38:50Z</time>
      </trkpt>
      <trkpt lat="43.9572" lon="5.14392">
        <ele>575</ele>
        <time>2013-04-11T11:39:13Z</time>
      </trkpt>
      <trkpt lat="43.95737" lon="5.14386">
        <ele>574</ele>
        <time>2013-04-11T11:39:32Z</time>
      </trkpt>
      <trkpt lat="43.95748" lon="5.14373">
        <ele>571</ele>
        <time>2013-04-11T11:39:48Z</time>
      </trkpt>
      <trkpt lat="43.95766" lon="5.14369">
        <ele>570</ele>
        <time>2013-04-11T11:40:11Z</time>
      </trkpt>
      <trkpt lat="43.95779" lon="5.14364">
        <ele>569</ele>
        <time>2013-04-11T11:40:40Z</time>
      </trkpt>
      <trkpt lat="43.95783" lon="5.14359">
        <ele>566</ele>
        <time>2013-04-11T11:44:02Z</time>
      </trkpt>
      <trkpt lat="43.95787" lon="5.14355">
        <ele>566</ele>
        <time>2013-04-11T11:44:07Z</time>
      </trkpt>
      <trkpt lat="43.9582" lon="5.14336">
        <ele>563</ele>
        <time>2013-04-11T11:44:33Z</time>
      </trkpt>
      <trkpt lat="43.95831" lon="5.14321">
        <ele>562</ele>
        <time>2013-04-11T11:44:49Z</time>
      </trkpt>
      <trkpt lat="43.95834" lon="5.14311">
        <ele>561</ele>
        <time>2013-04-11T11:44:56Z</time>
      </trkpt>
      <trkpt lat="43.95848" lon="5.14299">
        <ele>560</ele>
        <time>2013-04-11T11:45:11Z</time>
      </trkpt>
      <trkpt lat="43.95854" lon="5.14289">
        <ele>559</ele>
        <time>2013-04-11T11:45:20Z</time>
      </trkpt>
      <trkpt lat="43.95862" lon="5.14273">
        <ele>556</ele>
        <time>2013-04-11T11:45:36Z</time>
      </trkpt>
      <trkpt lat="43.95868" lon="5.14255">
        <ele>554</ele>
        <time>2013-04-11T11:45:54Z</time>
      </trkpt>
      <trkpt lat="43.95877" lon="5.14241">
        <ele>550</ele>
        <time>2013-04-11T11:46:11Z</time>
      </trkpt>
      <trkpt lat="43.95897" lon="5.14229">
        <ele>548</ele>
        <time>2013-04-11T11:46:35Z</time>
      </trkpt>
      <trkpt lat="43.95909" lon="5.14232">
        <ele>548</ele>
        <time>2013-04-11T11:46:48Z</time>
      </trkpt>
      <trkpt lat="43.95925" lon="5.14223">
        <ele>545</ele>
        <time>2013-04-11T11:47:07Z</time>
      </trkpt>
      <trkpt lat="43.95936" lon="5.14216">
        <ele>542</ele>
        <time>2013-04-11T11:47:25Z</time>
      </trkpt>
      <trkpt lat="43.95949" lon="5.14213">
        <ele>540</ele>
        <time>2013-04-11T11:47:40Z</time>
      </trkpt>
      <trkpt lat="43.95962" lon="5.14209">
        <ele>537</ele>
        <time>2013-04-11T11:47:59Z</time>
      </trkpt>
      <trkpt lat="43.95976" lon="5.14212">
        <ele>536</ele>
        <time>2013-04-11T11:48:16Z</time>
      </trkpt>
      <trkpt lat="43.95984" lon="5.14215">
        <ele>534</ele>
        <time>2013-04-11T11:48:32Z</time>
      </trkpt>
      <trkpt lat="43.95989" lon="5.14218">
        <ele>533</ele>
        <time>2013-04-11T11:48:45Z</time>
      </trkpt>
      <trkpt lat="43.95996" lon="5.14222">
        <ele>531</ele>
        <time>2013-04-11T11:49:09Z</time>
      </trkpt>
      <trkpt lat="43.95998" lon="5.14232">
        <ele>530</ele>
        <time>2013-04-11T11:49:23Z</time>
      </trkpt>
      <trkpt lat="43.95999" lon="5.14239">
        <ele>528</ele>
        <time>2013-04-11T11:49:36Z</time>
      </trkpt>
      <trkpt lat="43.96004" lon="5.14244">
        <ele>526</ele>
        <time>2013-04-11T11:49:57Z</time>
      </trkpt>
      <trkpt lat="43.96001" lon="5.14249">
        <ele>526</ele>
        <time>2013-04-11T11:50:36Z</time>
      </trkpt>
      <trkpt lat="43.96006" lon="5.14258">
        <ele>524</ele>
        <time>2013-04-11T11:51:17Z</time>
      </trkpt>
      <trkpt lat="43.96017" lon="5.14257">
        <ele>520</ele>
        <time>2013-04-11T11:51:43Z</time>
      </trkpt>
      <trkpt lat="43.96023" lon="5.14258">
        <ele>518</ele>
        <time>2013-04-11T11:52:11Z</time>
      </trkpt>
      <trkpt lat="43.96024" lon="5.14257">
        <ele>516</ele>
        <time>2013-04-11T11:52:27Z</time>
      </trkpt>
      <trkpt lat="43.96028" lon="5.14258">
        <ele>513</ele>
        <time>2013-04-11T11:52:59Z</time>
      </trkpt>
      <trkpt lat="43.96035" lon="5.14259">
        <ele>510</ele>
        <time>2013-04-11T11:53:17Z</time>
      </trkpt>
      <trkpt lat="43.96051" lon="5.14262">
        <ele>507</ele>
        <time>2013-04-11T11:53:38Z</time>
      </trkpt>
      <trkpt lat="43.96062" lon="5.14257">
        <ele>504</ele>
        <time>2013-04-11T11:54:02Z</time>
      </trkpt>
      <trkpt lat="43.96081" lon="5.14262">
        <ele>501</ele>
        <time>2013-04-11T11:54:22Z</time>
      </trkpt>
      <trkpt lat="43.96095" lon="5.14269">
        <ele>498</ele>
        <time>2013-04-11T11:54:40Z</time>
      </trkpt>
      <trkpt lat="43.96106" lon="5.14273">
        <ele>495</ele>
        <time>2013-04-11T11:54:57Z</time>
      </trkpt>
      <trkpt lat="43.96118" lon="5.14273">
        <ele>492</ele>
        <time>2013-04-11T11:55:11Z</time>
      </trkpt>
      <trkpt lat="43.96117" lon="5.14272">
        <ele>493</ele>
        <time>2013-04-11T11:56:29Z</time>
      </trkpt>
      <trkpt lat="43.96124" lon="5.14262">
        <ele>492</ele>
        <time>2013-04-11T11:58:00Z</time>
      </trkpt>
      <trkpt lat="43.96138" lon="5.14252">
        <ele>489</ele>
        <time>2013-04-11T11:58:23Z</time>
      </trkpt>
      <trkpt lat="43.96156" lon="5.1425">
        <ele>486</ele>
        <time>2013-04-11T11:58:43Z</time>
      </trkpt>
      <trkpt lat="43.96178" lon="5.14266">
        <ele>483</ele>
        <time>2013-04-11T11:59:03Z</time>
      </trkpt>
      <trkpt lat="43.96183" lon="5.14274">
        <ele>482</ele>
        <time>2013-04-11T11:59:12Z</time>
      </trkpt>
      <trkpt lat="43.96189" lon="5.14281">
        <ele>480</ele>
        <time>2013-04-11T11:59:26Z</time>
      </trkpt>
      <trkpt lat="43.96197" lon="5.14286">
        <ele>478</ele>
        <time>2013-04-11T11:59:44Z</time>
      </trkpt>
      <trkpt lat="43.96203" lon="5.14286">
        <ele>475</ele>
        <time>2013-04-11T12:00:04Z</time>
      </trkpt>
      <trkpt lat="43.96209" lon="5.14288">
        <ele>474</ele>
        <time>2013-04-11T12:00:31Z</time>
      </trkpt>
      <trkpt lat="43.96214" lon="5.14288">
        <ele>472</ele>
        <time>2013-04-11T12:00:48Z</time>
      </trkpt>
      <trkpt lat="43.96215" lon="5.14285">
        <ele>470</ele>
        <time>2013-04-11T12:01:03Z</time>
      </trkpt>
      <trkpt lat="43.96222" lon="5.14284">
        <ele>468</ele>
        <time>2013-04-11T12:01:18Z</time>
      </trkpt>
      <trkpt lat="43.96223" lon="5.14295">
        <ele>467</ele>
        <time>2013-04-11T12:01:31Z</time>
      </trkpt>
      <trkpt lat="43.96222" lon="5.14304">
        <ele>466</ele>
        <time>2013-04-11T12:01:48Z</time>
      </trkpt>
      <trkpt lat="43.96218" lon="5.14316">
        <ele>466</ele>
        <time>2013-04-11T12:02:02Z</time>
      </trkpt>
      <trkpt lat="43.96214" lon="5.14338">
        <ele>464</ele>
        <time>2013-04-11T12:02:16Z</time>
      </trkpt>
      <trkpt lat="43.96216" lon="5.14353">
        <ele>463</ele>
        <time>2013-04-11T12:02:33Z</time>
      </trkpt>
      <trkpt lat="43.96214" lon="5.14363">
        <ele>463</ele>
        <time>2013-04-11T12:02:46Z</time>
      </trkpt>
      <trkpt lat="43.96213" lon="5.14368">
        <ele>463</ele>
        <time>2013-04-11T12:03:04Z</time>
      </trkpt>
      <trkpt lat="43.96212" lon="5.14367">
        <ele>464</ele>
        <time>2013-04-11T12:03:52Z</time>
      </trkpt>
      <trkpt lat="43.96214" lon="5.14369">
        <ele>463</ele>
        <time>2013-04-11T12:04:19Z</time>
      </trkpt>
      <trkpt lat="43.96216" lon="5.14373">
        <ele>464</ele>
        <time>2013-04-11T12:04:47Z</time>
      </trkpt>
      <trkpt lat="43.96215" lon="5.14371">
        <ele>464</ele>
        <time>2013-04-11T12:05:38Z</time>
      </trkpt>
      <trkpt lat="43.96217" lon="5.1437">
        <ele>463</ele>
        <time>2013-04-11T12:06:23Z</time>
      </trkpt>
      <trkpt lat="43.96216" lon="5.1437">
        <ele>463</ele>
        <time>2013-04-11T12:07:32Z</time>
      </trkpt>
      <trkpt lat="43.96216" lon="5.1437">
        <ele>463</ele>
        <time>2013-04-11T12:08:41Z</time>
      </trkpt>
      <trkpt lat="43.96221" lon="5.14358">
        <ele>461</ele>
        <time>2013-04-11T12:09:32Z</time>
      </trkpt>
      <trkpt lat="43.96228" lon="5.14352">
        <ele>459</ele>
        <time>2013-04-11T12:09:46Z</time>
      </trkpt>
      <trkpt lat="43.96232" lon="5.14341">
        <ele>457</ele>
        <time>2013-04-11T12:09:57Z</time>
      </trkpt>
      <trkpt lat="43.96239" lon="5.14325">
        <ele>454</ele>
        <time>2013-04-11T12:10:13Z</time>
      </trkpt>
      <trkpt lat="43.96245" lon="5.1431">
        <ele>451</ele>
        <time>2013-04-11T12:10:29Z</time>
      </trkpt>
      <trkpt lat="43.96249" lon="5.143">
        <ele>449</ele>
        <time>2013-04-11T12:10:40Z</time>
      </trkpt>
      <trkpt lat="43.96257" lon="5.1429">
        <ele>447</ele>
        <time>2013-04-11T12:10:49Z</time>
      </trkpt>
      <trkpt lat="43.96263" lon="5.14274">
        <ele>445</ele>
        <time>2013-04-11T12:11:07Z</time>
      </trkpt>
      <trkpt lat="43.96262" lon="5.14277">
        <ele>445</ele>
        <time>2013-04-11T12:12:24Z</time>
      </trkpt>
      <trkpt lat="43.96264" lon="5.14277">
        <ele>446</ele>
        <time>2013-04-11T12:12:48Z</time>
      </trkpt>
      <trkpt lat="43.96269" lon="5.14271">
        <ele>444</ele>
        <time>2013-04-11T12:13:09Z</time>
      </trkpt>
      <trkpt lat="43.96274" lon="5.14263">
        <ele>444</ele>
        <time>2013-04-11T12:13:22Z</time>
      </trkpt>
      <trkpt lat="43.9628" lon="5.14253">
        <ele>442</ele>
        <time>2013-04-11T12:13:37Z</time>
      </trkpt>
      <trkpt lat="43.96283" lon="5.14241">
        <ele>440</ele>
        <time>2013-04-11T12:13:48Z</time>
      </trkpt>
      <trkpt lat="43.96289" lon="5.1423">
        <ele>439</ele>
        <time>2013-04-11T12:14:02Z</time>
      </trkpt>
      <trkpt lat="43.96298" lon="5.14229">
        <ele>437</ele>
        <time>2013-04-11T12:14:17Z</time>
      </trkpt>
      <trkpt lat="43.96303" lon="5.14227">
        <ele>436</ele>
        <time>2013-04-11T12:14:23Z</time>
      </trkpt>
      <trkpt lat="43.96313" lon="5.14218">
        <ele>433</ele>
        <time>2013-04-11T12:14:36Z</time>
      </trkpt>
      <trkpt lat="43.96325" lon="5.14213">
        <ele>430</ele>
        <time>2013-04-11T12:14:53Z</time>
      </trkpt>
      <trkpt lat="43.96334" lon="5.14209">
        <ele>427</ele>
        <time>2013-04-11T12:15:08Z</time>
      </trkpt>
      <trkpt lat="43.96342" lon="5.14212">
        <ele>425</ele>
        <time>2013-04-11T12:15:23Z</time>
      </trkpt>
      <trkpt lat="43.96351" lon="5.1421">
        <ele>423</ele>
        <time>2013-04-11T12:15:37Z</time>
      </trkpt>
      <trkpt lat="43.9636" lon="5.14203">
        <ele>421</ele>
        <time>2013-04-11T12:15:53Z</time>
      </trkpt>
      <trkpt lat="43.96365" lon="5.14198">
        <ele>419</ele>
        <time>2013-04-11T12:16:04Z</time>
      </trkpt>
      <trkpt lat="43.96374" lon="5.14191">
        <ele>416</ele>
        <time>2013-04-11T12:16:17Z</time>
      </trkpt>
      <trkpt lat="43.96377" lon="5.14193">
        <ele>416</ele>
        <time>2013-04-11T12:16:20Z</time>
      </trkpt>
      <trkpt lat="43.96377" lon="5.14193">
        <ele>413</ele>
        <time>2013-04-11T12:16:34Z</time>
      </trkpt>
      <trkpt lat="43.96377" lon="5.14193">
        <ele>409</ele>
        <time>2013-04-11T12:16:46Z</time>
      </trkpt>
      <trkpt lat="43.96377" lon="5.14193">
        <ele>407</ele>
        <time>2013-04-11T12:16:59Z</time>
      </trkpt>
      <trkpt lat="43.96419" lon="5.14171">
        <ele>404</ele>
        <time>2013-04-11T12:17:14Z</time>
      </trkpt>
      <trkpt lat="43.96419" lon="5.14171">
        <ele>403</ele>
        <time>2013-04-11T12:17:28Z</time>
      </trkpt>
      <trkpt lat="43.96419" lon="5.14171">
        <ele>403</ele>
        <time>2013-04-11T12:17:43Z</time>
      </trkpt>
      <trkpt lat="43.96419" lon="5.14171">
        <ele>402</ele>
        <time>2013-04-11T12:17:52Z</time>
      </trkpt>
      <trkpt lat="43.96419" lon="5.14171">
        <ele>401</ele>
        <time>2013-04-11T12:18:17Z</time>
      </trkpt>
      <trkpt lat="43.9647" lon="5.14128">
        <ele>400</ele>
        <time>2013-04-11T12:18:39Z</time>
      </trkpt>
      <trkpt lat="43.9647" lon="5.14128">
        <ele>399</ele>
        <time>2013-04-11T12:18:58Z</time>
      </trkpt>
      <trkpt lat="43.9647" lon="5.14128">
        <ele>395</ele>
        <time>2013-04-11T12:19:20Z</time>
      </trkpt>
      <trkpt lat="43.96495" lon="5.14057">
        <ele>392</ele>
        <time>2013-04-11T12:19:35Z</time>
      </trkpt>
      <trkpt lat="43.96495" lon="5.14057">
        <ele>391</ele>
        <time>2013-04-11T12:19:48Z</time>
      </trkpt>
      <trkpt lat="43.96495" lon="5.14057">
        <ele>389</ele>
        <time>2013-04-11T12:20:05Z</time>
      </trkpt>
      <trkpt lat="43.96495" lon="5.14057">
        <ele>387</ele>
        <time>2013-04-11T12:20:20Z</time>
      </trkpt>
      <trkpt lat="43.96495" lon="5.14057">
        <ele>386</ele>
        <time>2013-04-11T12:20:24Z</time>
      </trkpt>
      <trkpt lat="43.96495" lon="5.14057">
        <ele>384</ele>
        <time>2013-04-11T12:20:40Z</time>
      </trkpt>
      <trkpt lat="43.96495" lon="5.14057">
        <ele>383</ele>
        <time>2013-04-11T12:20:49Z</time>
      </trkpt>
      <trkpt lat="43.96495" lon="5.14057">
        <ele>382</ele>
        <time>2013-04-11T12:21:05Z</time>
      </trkpt>
      <trkpt lat="43.96495" lon="5.14057">
        <ele>382</ele>
        <time>2013-04-11T12:21:23Z</time>
      </trkpt>
      <trkpt lat="43.96528" lon="5.13942">
        <ele>380</ele>
        <time>2013-04-11T12:21:47Z</time>
      </trkpt>
      <trkpt lat="43.96528" lon="5.13942">
        <ele>378</ele>
        <time>2013-04-11T12:22:02Z</time>
      </trkpt>
      <trkpt lat="43.96528" lon="5.13942">
        <ele>377</ele>
        <time>2013-04-11T12:22:19Z</time>
      </trkpt>
      <trkpt lat="43.96542" lon="5.13918">
        <ele>376</ele>
        <time>2013-04-11T12:22:31Z</time>
      </trkpt>
      <trkpt lat="43.96542" lon="5.13918">
        <ele>374</ele>
        <time>2013-04-11T12:22:47Z</time>
      </trkpt>
      <trkpt lat="43.96542" lon="5.13918">
        <ele>373</ele>
        <time>2013-04-11T12:23:05Z</time>
      </trkpt>
      <trkpt lat="43.96542" lon="5.13918">
        <ele>374</ele>
        <time>2013-04-11T12:23:27Z</time>
      </trkpt>
      <trkpt lat="43.96542" lon="5.13918">
        <ele>373</ele>
        <time>2013-04-11T12:23:47Z</time>
      </trkpt>
      <trkpt lat="43.96542" lon="5.13918">
        <ele>371</ele>
        <time>2013-04-11T12:23:59Z</time>
      </trkpt>
      <trkpt lat="43.96542" lon="5.13918">
        <ele>371</ele>
        <time>2013-04-11T12:24:04Z</time>
      </trkpt>
      <trkpt lat="43.96542" lon="5.13918">
        <ele>372</ele>
        <time>2013-04-11T12:24:25Z</time>
      </trkpt>
      <trkpt lat="43.96542" lon="5.13918">
        <ele>372</ele>
        <time>2013-04-11T12:24:26Z</time>
      </trkpt>
      <trkpt lat="43.96542" lon="5.13918">
        <ele>371</ele>
        <time>2013-04-11T12:24:42Z</time>
      </trkpt>
      <trkpt lat="43.96542" lon="5.13918">
        <ele>372</ele>
        <time>2013-04-11T12:25:18Z</time>
      </trkpt>
      <trkpt lat="43.96542" lon="5.13918">
        <ele>372</ele>
        <time>2013-04-11T12:26:21Z</time>
      </trkpt>
      <trkpt lat="43.96542" lon="5.13918">
        <ele>372</ele>
        <time>2013-04-11T12:26:51Z</time>
      </trkpt>
      <trkpt lat="43.96542" lon="5.13918">
        <ele>371</ele>
        <time>2013-04-11T12:27:28Z</time>
      </trkpt>
      <trkpt lat="43.96542" lon="5.13918">
        <ele>371</ele>
        <time>2013-04-11T12:28:12Z</time>
      </trkpt>
      <trkpt lat="43.96542" lon="5.13918">
        <ele>370</ele>
        <time>2013-04-11T12:28:47Z</time>
      </trkpt>
      <trkpt lat="43.96542" lon="5.13918">
        <ele>370</ele>
        <time>2013-04-11T12:29:09Z</time>
      </trkpt>
      <trkpt lat="43.96542" lon="5.13918">
        <ele>371</ele>
        <time>2013-04-11T12:29:24Z</time>
      </trkpt>
      <trkpt lat="43.96542" lon="5.13918">
        <ele>371</ele>
        <time>2013-04-11T12:29:49Z</time>
      </trkpt>
      <trkpt lat="43.96542" lon="5.13918">
        <ele>370</ele>
        <time>2013-04-11T12:30:34Z</time>
      </trkpt>
      <trkpt lat="43.96542" lon="5.13918">
        <ele>370</ele>
        <time>2013-04-11T12:31:25Z</time>
      </trkpt>
      <trkpt lat="43.96542" lon="5.13918">
        <ele>371</ele>
        <time>2013-04-11T12:33:02Z</time>
      </trkpt>
      <trkpt lat="43.96542" lon="5.13918">
        <ele>371</ele>
        <time>2013-04-11T12:35:20Z</time>
      </trkpt>
      <trkpt lat="43.96542" lon="5.13918">
        <ele>371</ele>
        <time>2013-04-11T12:38:57Z</time>
      </trkpt>
      <trkpt lat="43.96542" lon="5.13918">
        <ele>370</ele>
        <time>2013-04-11T12:39:48Z</time>
      </trkpt>
      <trkpt lat="43.96542" lon="5.13918">
        <ele>371</ele>
        <time>2013-04-11T12:41:08Z</time>
      </trkpt>
      <trkpt lat="43.96542" lon="5.13918">
        <ele>369</ele>
        <time>2013-04-11T12:47:22Z</time>
      </trkpt>
      <trkpt lat="43.96542" lon="5.13918">
        <ele>370</ele>
        <time>2013-04-11T12:48:24Z</time>
      </trkpt>
      <trkpt lat="43.96542" lon="5.13918">
        <ele>370</ele>
        <time>2013-04-11T12:49:10Z</time>
      </trkpt>
      <trkpt lat="43.96542" lon="5.13918">
        <ele>372</ele>
        <time>2013-04-11T12:58:12Z</time>
      </trkpt>
      <trkpt lat="43.96542" lon="5.13918">
        <ele>372</ele>
        <time>2013-04-11T12:58:58Z</time>
      </trkpt>
      <trkpt lat="43.96542" lon="5.13918">
        <ele>373</ele>
        <time>2013-04-11T13:01:10Z</time>
      </trkpt>
      <trkpt lat="43.96542" lon="5.13918">
        <ele>373</ele>
        <time>2013-04-11T13:05:53Z</time>
      </trkpt>
      <trkpt lat="43.96542" lon="5.13918">
        <ele>373</ele>
        <time>2013-04-11T13:07:19Z</time>
      </trkpt>
      <trkpt lat="43.96542" lon="5.13918">
        <ele>374</ele>
        <time>2013-04-11T13:08:18Z</time>
      </trkpt>
      <trkpt lat="43.96542" lon="5.13918">
        <ele>375</ele>
        <time>2013-04-11T13:08:35Z</time>
      </trkpt>
      <trkpt lat="43.96542" lon="5.13918">
        <ele>374</ele>
        <time>2013-04-11T13:09:12Z</time>
      </trkpt>
      <trkpt lat="43.96542" lon="5.13918">
        <ele>375</ele>
        <time>2013-04-11T13:09:29Z</time>
      </trkpt>
      <trkpt lat="43.96542" lon="5.13918">
        <ele>374</ele>
        <time>2013-04-11T13:09:54Z</time>
      </trkpt>
      <trkpt lat="43.96542" lon="5.13918">
        <ele>374</ele>
        <time>2013-04-11T13:10:36Z</time>
      </trkpt>
      <trkpt lat="43.96542" lon="5.13918">
        <ele>374</ele>
        <time>2013-04-11T13:11:16Z</time>
      </trkpt>
      <trkpt lat="43.96542" lon="5.13918">
        <ele>374</ele>
        <time>2013-04-11T13:11:42Z</time>
      </trkpt>
      <trkpt lat="43.96543" lon="5.13829">
        <ele>374</ele>
        <time>2013-04-11T13:12:01Z</time>
      </trkpt>
      <trkpt lat="43.96543" lon="5.13829">
        <ele>376</ele>
        <time>2013-04-11T13:12:36Z</time>
      </trkpt>
      <trkpt lat="43.96543" lon="5.13829">
        <ele>376</ele>
        <time>2013-04-11T13:14:05Z</time>
      </trkpt>
      <trkpt lat="43.96543" lon="5.13829">
        <ele>374</ele>
        <time>2013-04-11T13:15:17Z</time>
      </trkpt>
      <trkpt lat="43.96543" lon="5.13829">
        <ele>375</ele>
        <time>2013-04-11T13:15:49Z</time>
      </trkpt>
      <trkpt lat="43.96543" lon="5.13829">
        <ele>375</ele>
        <time>2013-04-11T13:16:22Z</time>
      </trkpt>
      <trkpt lat="43.96543" lon="5.13829">
        <ele>375</ele>
        <time>2013-04-11T13:17:29Z</time>
      </trkpt>
      <trkpt lat="43.96543" lon="5.13829">
        <ele>374</ele>
        <time>2013-04-11T13:18:12Z</time>
      </trkpt>
      <trkpt lat="43.96543" lon="5.13829">
        <ele>375</ele>
        <time>2013-04-11T13:18:40Z</time>
      </trkpt>
      <trkpt lat="43.96543" lon="5.13829">
        <ele>375</ele>
        <time>2013-04-11T13:19:46Z</time>
      </trkpt>
      <trkpt lat="43.96543" lon="5.13829">
        <ele>376</ele>
        <time>2013-04-11T13:20:54Z</time>
      </trkpt>
      <trkpt lat="43.96543" lon="5.13829">
        <ele>375</ele>
        <time>2013-04-11T13:22:05Z</time>
      </trkpt>
      <trkpt lat="43.96543" lon="5.13829">
        <ele>372</ele>
        <time>2013-04-11T13:24:39Z</time>
      </trkpt>
      <trkpt lat="43.96543" lon="5.13829">
        <ele>372</ele>
        <time>2013-04-11T13:25:17Z</time>
      </trkpt>
      <trkpt lat="43.96543" lon="5.13829">
        <ele>372</ele>
        <time>2013-04-11T13:25:23Z</time>
      </trkpt>
      <trkpt lat="43.96566" lon="5.13842">
        <ele>373</ele>
        <time>2013-04-11T13:25:41Z</time>
      </trkpt>
      <trkpt lat="43.96566" lon="5.13842">
        <ele>373</ele>
        <time>2013-04-11T13:26:02Z</time>
      </trkpt>
      <trkpt lat="43.96566" lon="5.13842">
        <ele>376</ele>
        <time>2013-04-11T13:26:21Z</time>
      </trkpt>
      <trkpt lat="43.96566" lon="5.13842">
        <ele>377</ele>
        <time>2013-04-11T13:26:38Z</time>
      </trkpt>
      <trkpt lat="43.96566" lon="5.13842">
        <ele>378</ele>
        <time>2013-04-11T13:26:54Z</time>
      </trkpt>
      <trkpt lat="43.96566" lon="5.13842">
        <ele>380</ele>
        <time>2013-04-11T13:27:12Z</time>
      </trkpt>
      <trkpt lat="43.96566" lon="5.13842">
        <ele>382</ele>
        <time>2013-04-11T13:27:31Z</time>
      </trkpt>
      <trkpt lat="43.96561" lon="5.13986">
        <ele>385</ele>
        <time>2013-04-11T13:27:53Z</time>
      </trkpt>
      <trkpt lat="43.96561" lon="5.13986">
        <ele>387</ele>
        <time>2013-04-11T13:28:10Z</time>
      </trkpt>
      <trkpt lat="43.96561" lon="5.13986">
        <ele>388</ele>
        <time>2013-04-11T13:28:16Z</time>
      </trkpt>
      <trkpt lat="43.96561" lon="5.13986">
        <ele>389</ele>
        <time>2013-04-11T13:28:34Z</time>
      </trkpt>
      <trkpt lat="43.96561" lon="5.13986">
        <ele>389</ele>
        <time>2013-04-11T13:28:45Z</time>
      </trkpt>
      <trkpt lat="43.96502" lon="5.14032">
        <ele>390</ele>
        <time>2013-04-11T13:28:56Z</time>
      </trkpt>
      <trkpt lat="43.96502" lon="5.14032">
        <ele>392</ele>
        <time>2013-04-11T13:29:10Z</time>
      </trkpt>
      <trkpt lat="43.96502" lon="5.14032">
        <ele>393</ele>
        <time>2013-04-11T13:29:27Z</time>
      </trkpt>
      <trkpt lat="43.96502" lon="5.14032">
        <ele>394</ele>
        <time>2013-04-11T13:29:40Z</time>
      </trkpt>
      <trkpt lat="43.96502" lon="5.14032">
        <ele>395</ele>
        <time>2013-04-11T13:29:55Z</time>
      </trkpt>
      <trkpt lat="43.96502" lon="5.14032">
        <ele>396</ele>
        <time>2013-04-11T13:30:02Z</time>
      </trkpt>
      <trkpt lat="43.96502" lon="5.14032">
        <ele>397</ele>
        <time>2013-04-11T13:30:18Z</time>
      </trkpt>
      <trkpt lat="43.96502" lon="5.14032">
        <ele>397</ele>
        <time>2013-04-11T13:30:34Z</time>
      </trkpt>
      <trkpt lat="43.96502" lon="5.14032">
        <ele>397</ele>
        <time>2013-04-11T13:30:49Z</time>
      </trkpt>
      <trkpt lat="43.96502" lon="5.14032">
        <ele>398</ele>
        <time>2013-04-11T13:30:56Z</time>
      </trkpt>
      <trkpt lat="43.96502" lon="5.14032">
        <ele>398</ele>
        <time>2013-04-11T13:31:15Z</time>
      </trkpt>
      <trkpt lat="43.96502" lon="5.14032">
        <ele>397</ele>
        <time>2013-04-11T13:31:31Z</time>
      </trkpt>
      <trkpt lat="43.96502" lon="5.14032">
        <ele>397</ele>
        <time>2013-04-11T13:31:47Z</time>
      </trkpt>
      <trkpt lat="43.96502" lon="5.14032">
        <ele>397</ele>
        <time>2013-04-11T13:31:54Z</time>
      </trkpt>
      <trkpt lat="43.96502" lon="5.14032">
        <ele>397</ele>
        <time>2013-04-11T13:31:58Z</time>
      </trkpt>
      <trkpt lat="43.96502" lon="5.14032">
        <ele>397</ele>
        <time>2013-04-11T13:32:12Z</time>
      </trkpt>
      <trkpt lat="43.96502" lon="5.14032">
        <ele>397</ele>
        <time>2013-04-11T13:32:36Z</time>
      </trkpt>
      <trkpt lat="43.96502" lon="5.14032">
        <ele>397</ele>
        <time>2013-04-11T13:32:37Z</time>
      </trkpt>
      <trkpt lat="43.96502" lon="5.14032">
        <ele>397</ele>
        <time>2013-04-11T13:32:47Z</time>
      </trkpt>
      <trkpt lat="43.96502" lon="5.14032">
        <ele>397</ele>
        <time>2013-04-11T13:32:48Z</time>
      </trkpt>
      <trkpt lat="43.96502" lon="5.14032">
        <ele>398</ele>
        <time>2013-04-11T13:33:09Z</time>
      </trkpt>
      <trkpt lat="43.96569" lon="5.13997">
        <ele>397</ele>
        <time>2013-04-11T13:33:32Z</time>
      </trkpt>
      <trkpt lat="43.96577" lon="5.13975">
        <ele>399</ele>
        <time>2013-04-11T13:33:51Z</time>
      </trkpt>
      <trkpt lat="43.96598" lon="5.13955">
        <ele>402</ele>
        <time>2013-04-11T13:34:20Z</time>
      </trkpt>
      <trkpt lat="43.96631" lon="5.13953">
        <ele>404</ele>
        <time>2013-04-11T13:34:52Z</time>
      </trkpt>
      <trkpt lat="43.96658" lon="5.13947">
        <ele>406</ele>
        <time>2013-04-11T13:35:16Z</time>
      </trkpt>
      <trkpt lat="43.96682" lon="5.1394">
        <ele>407</ele>
        <time>2013-04-11T13:35:42Z</time>
      </trkpt>
      <trkpt lat="43.96716" lon="5.1393">
        <ele>407</ele>
        <time>2013-04-11T13:36:19Z</time>
      </trkpt>
      <trkpt lat="43.9674" lon="5.13923">
        <ele>408</ele>
        <time>2013-04-11T13:36:45Z</time>
      </trkpt>
      <trkpt lat="43.96754" lon="5.13914">
        <ele>410</ele>
        <time>2013-04-11T13:37:00Z</time>
      </trkpt>
      <trkpt lat="43.96772" lon="5.13918">
        <ele>409</ele>
        <time>2013-04-11T13:37:35Z</time>
      </trkpt>
      <trkpt lat="43.96791" lon="5.13916">
        <ele>412</ele>
        <time>2013-04-11T13:38:01Z</time>
      </trkpt>
      <trkpt lat="43.96806" lon="5.13922">
        <ele>414</ele>
        <time>2013-04-11T13:38:18Z</time>
      </trkpt>
      <trkpt lat="43.96817" lon="5.1392">
        <ele>414</ele>
        <time>2013-04-11T13:38:30Z</time>
      </trkpt>
      <trkpt lat="43.96822" lon="5.1392">
        <ele>415</ele>
        <time>2013-04-11T13:38:48Z</time>
      </trkpt>
      <trkpt lat="43.96841" lon="5.13923">
        <ele>414</ele>
        <time>2013-04-11T13:39:26Z</time>
      </trkpt>
      <trkpt lat="43.96856" lon="5.13922">
        <ele>417</ele>
        <time>2013-04-11T13:39:46Z</time>
      </trkpt>
      <trkpt lat="43.96876" lon="5.13918">
        <ele>418</ele>
        <time>2013-04-11T13:40:11Z</time>
      </trkpt>
      <trkpt lat="43.96894" lon="5.13918">
        <ele>420</ele>
        <time>2013-04-11T13:40:30Z</time>
      </trkpt>
      <trkpt lat="43.96903" lon="5.13916">
        <ele>421</ele>
        <time>2013-04-11T13:40:43Z</time>
      </trkpt>
      <trkpt lat="43.96925" lon="5.13908">
        <ele>422</ele>
        <time>2013-04-11T13:41:08Z</time>
      </trkpt>
      <trkpt lat="43.96938" lon="5.13902">
        <ele>423</ele>
        <time>2013-04-11T13:41:23Z</time>
      </trkpt>
      <trkpt lat="43.96955" lon="5.13894">
        <ele>423</ele>
        <time>2013-04-11T13:41:44Z</time>
      </trkpt>
      <trkpt lat="43.96975" lon="5.13882">
        <ele>422</ele>
        <time>2013-04-11T13:42:07Z</time>
      </trkpt>
      <trkpt lat="43.96976" lon="5.13881">
        <ele>422</ele>
        <time>2013-04-11T13:42:08Z</time>
      </trkpt>
      <trkpt lat="43.96978" lon="5.1388">
        <ele>421</ele>
        <time>2013-04-11T13:42:11Z</time>
      </trkpt>
      <trkpt lat="43.97002" lon="5.13872">
        <ele>420</ele>
        <time>2013-04-11T13:42:34Z</time>
      </trkpt>
      <trkpt lat="43.97012" lon="5.13869">
        <ele>420</ele>
        <time>2013-04-11T13:42:44Z</time>
      </trkpt>
      <trkpt lat="43.97031" lon="5.13863">
        <ele>417</ele>
        <time>2013-04-11T13:43:05Z</time>
      </trkpt>
      <trkpt lat="43.97048" lon="5.13856">
        <ele>418</ele>
        <time>2013-04-11T13:43:22Z</time>
      </trkpt>
      <trkpt lat="43.97067" lon="5.13855">
        <ele>417</ele>
        <time>2013-04-11T13:43:41Z</time>
      </trkpt>
      <trkpt lat="43.97086" lon="5.13856">
        <ele>415</ele>
        <time>2013-04-11T13:44:01Z</time>
      </trkpt>
      <trkpt lat="43.97099" lon="5.13863">
        <ele>414</ele>
        <time>2013-04-11T13:44:22Z</time>
      </trkpt>
      <trkpt lat="43.97101" lon="5.13861">
        <ele>413</ele>
        <time>2013-04-11T13:44:26Z</time>
      </trkpt>
      <trkpt lat="43.97115" lon="5.13865">
        <ele>412</ele>
        <time>2013-04-11T13:44:37Z</time>
      </trkpt>
      <trkpt lat="43.97135" lon="5.13878">
        <ele>409</ele>
        <time>2013-04-11T13:45:02Z</time>
      </trkpt>
      <trkpt lat="43.97146" lon="5.13889">
        <ele>405</ele>
        <time>2013-04-11T13:45:21Z</time>
      </trkpt>
      <trkpt lat="43.97158" lon="5.13892">
        <ele>402</ele>
        <time>2013-04-11T13:45:43Z</time>
      </trkpt>
      <trkpt lat="43.97164" lon="5.13884">
        <ele>401</ele>
        <time>2013-04-11T13:45:53Z</time>
      </trkpt>
      <trkpt lat="43.97171" lon="5.13872">
        <ele>400</ele>
        <time>2013-04-11T13:46:06Z</time>
      </trkpt>
      <trkpt lat="43.97163" lon="5.13856">
        <ele>400</ele>
        <time>2013-04-11T13:46:20Z</time>
      </trkpt>
      <trkpt lat="43.97153" lon="5.13843">
        <ele>399</ele>
        <time>2013-04-11T13:46:33Z</time>
      </trkpt>
      <trkpt lat="43.97143" lon="5.13826">
        <ele>399</ele>
        <time>2013-04-11T13:46:49Z</time>
      </trkpt>
      <trkpt lat="43.97132" lon="5.13808">
        <ele>399</ele>
        <time>2013-04-11T13:47:04Z</time>
      </trkpt>
      <trkpt lat="43.97125" lon="5.13798">
        <ele>399</ele>
        <time>2013-04-11T13:47:16Z</time>
      </trkpt>
      <trkpt lat="43.9712" lon="5.13778">
        <ele>397</ele>
        <time>2013-04-11T13:47:31Z</time>
      </trkpt>
      <trkpt lat="43.97129" lon="5.13758">
        <ele>395</ele>
        <time>2013-04-11T13:47:53Z</time>
      </trkpt>
      <trkpt lat="43.97146" lon="5.13757">
        <ele>393</ele>
        <time>2013-04-11T13:48:11Z</time>
      </trkpt>
      <trkpt lat="43.97155" lon="5.13757">
        <ele>390</ele>
        <time>2013-04-11T13:48:26Z</time>
      </trkpt>
      <trkpt lat="43.97161" lon="5.13742">
        <ele>387</ele>
        <time>2013-04-11T13:48:41Z</time>
      </trkpt>
      <trkpt lat="43.97168" lon="5.13737">
        <ele>385</ele>
        <time>2013-04-11T13:48:52Z</time>
      </trkpt>
      <trkpt lat="43.97182" lon="5.13736">
        <ele>382</ele>
        <time>2013-04-11T13:49:07Z</time>
      </trkpt>
      <trkpt lat="43.97195" lon="5.13735">
        <ele>380</ele>
        <time>2013-04-11T13:49:23Z</time>
      </trkpt>
      <trkpt lat="43.97201" lon="5.13737">
        <ele>378</ele>
        <time>2013-04-11T13:49:30Z</time>
      </trkpt>
      <trkpt lat="43.97216" lon="5.13737">
        <ele>375</ele>
        <time>2013-04-11T13:49:46Z</time>
      </trkpt>
      <trkpt lat="43.9723" lon="5.13736">
        <ele>373</ele>
        <time>2013-04-11T13:50:02Z</time>
      </trkpt>
      <trkpt lat="43.97244" lon="5.13732">
        <ele>370</ele>
        <time>2013-04-11T13:50:20Z</time>
      </trkpt>
      <trkpt lat="43.9726" lon="5.13729">
        <ele>368</ele>
        <time>2013-04-11T13:50:41Z</time>
      </trkpt>
      <trkpt lat="43.97272" lon="5.13726">
        <ele>364</ele>
        <time>2013-04-11T13:50:57Z</time>
      </trkpt>
      <trkpt lat="43.97283" lon="5.13725">
        <ele>363</ele>
        <time>2013-04-11T13:51:10Z</time>
      </trkpt>
      <trkpt lat="43.97295" lon="5.1372">
        <ele>361</ele>
        <time>2013-04-11T13:51:25Z</time>
      </trkpt>
      <trkpt lat="43.97312" lon="5.13715">
        <ele>359</ele>
        <time>2013-04-11T13:51:40Z</time>
      </trkpt>
      <trkpt lat="43.97325" lon="5.13707">
        <ele>359</ele>
        <time>2013-04-11T13:51:56Z</time>
      </trkpt>
      <trkpt lat="43.97335" lon="5.13706">
        <ele>356</ele>
        <time>2013-04-11T13:52:08Z</time>
      </trkpt>
      <trkpt lat="43.97349" lon="5.13704">
        <ele>355</ele>
        <time>2013-04-11T13:52:22Z</time>
      </trkpt>
      <trkpt lat="43.97356" lon="5.13703">
        <ele>353</ele>
        <time>2013-04-11T13:52:33Z</time>
      </trkpt>
      <trkpt lat="43.97371" lon="5.13699">
        <ele>351</ele>
        <time>2013-04-11T13:52:52Z</time>
      </trkpt>
      <trkpt lat="43.97389" lon="5.13692">
        <ele>348</ele>
        <time>2013-04-11T13:53:11Z</time>
      </trkpt>
      <trkpt lat="43.97403" lon="5.13687">
        <ele>345</ele>
        <time>2013-04-11T13:53:28Z</time>
      </trkpt>
      <trkpt lat="43.97417" lon="5.13685">
        <ele>342</ele>
        <time>2013-04-11T13:53:44Z</time>
      </trkpt>
      <trkpt lat="43.9743" lon="5.13682">
        <ele>341</ele>
        <time>2013-04-11T13:53:57Z</time>
      </trkpt>
      <trkpt lat="43.97446" lon="5.1368">
        <ele>339</ele>
        <time>2013-04-11T13:54:16Z</time>
      </trkpt>
      <trkpt lat="43.9746" lon="5.13681">
        <ele>337</ele>
        <time>2013-04-11T13:54:31Z</time>
      </trkpt>
      <trkpt lat="43.97473" lon="5.13672">
        <ele>333</ele>
        <time>2013-04-11T13:54:49Z</time>
      </trkpt>
      <trkpt lat="43.97486" lon="5.13662">
        <ele>330</ele>
        <time>2013-04-11T13:55:07Z</time>
      </trkpt>
      <trkpt lat="43.97498" lon="5.13658">
        <ele>327</ele>
        <time>2013-04-11T13:55:22Z</time>
      </trkpt>
      <trkpt lat="43.9751" lon="5.13648">
        <ele>325</ele>
        <time>2013-04-11T13:55:37Z</time>
      </trkpt>
      <trkpt lat="43.97519" lon="5.13638">
        <ele>322</ele>
        <time>2013-04-11T13:55:50Z</time>
      </trkpt>
      <trkpt lat="43.97533" lon="5.13619">
        <ele>319</ele>
        <time>2013-04-11T13:56:10Z</time>
      </trkpt>
      <trkpt lat="43.97545" lon="5.13601">
        <ele>316</ele>
        <time>2013-04-11T13:56:30Z</time>
      </trkpt>
      <trkpt lat="43.97555" lon="5.13585">
        <ele>314</ele>
        <time>2013-04-11T13:56:45Z</time>
      </trkpt>
      <trkpt lat="43.97571" lon="5.13556">
        <ele>312</ele>
        <time>2013-04-11T13:57:11Z</time>
      </trkpt>
      <trkpt lat="43.97585" lon="5.13528">
        <ele>309</ele>
        <time>2013-04-11T13:57:35Z</time>
      </trkpt>
      <trkpt lat="43.97596" lon="5.13502">
        <ele>305</ele>
        <time>2013-04-11T13:57:58Z</time>
      </trkpt>
      <trkpt lat="43.97606" lon="5.13479">
        <ele>302</ele>
        <time>2013-04-11T13:58:19Z</time>
      </trkpt>
      <trkpt lat="43.97617" lon="5.13456">
        <ele>299</ele>
        <time>2013-04-11T13:58:38Z</time>
      </trkpt>
      <trkpt lat="43.97637" lon="5.13426">
        <ele>296</ele>
        <time>2013-04-11T13:59:07Z</time>
      </trkpt>
      <trkpt lat="43.97653" lon="5.13418">
        <ele>294</ele>
        <time>2013-04-11T13:59:29Z</time>
      </trkpt>
      <trkpt lat="43.97652" lon="5.13418">
        <ele>294</ele>
        <time>2013-04-11T14:00:44Z</time>
      </trkpt>
      <trkpt lat="43.97652" lon="5.13424">
        <ele>293</ele>
        <time>2013-04-11T14:01:17Z</time>
      </trkpt>
      <trkpt lat="43.97652" lon="5.13424">
        <ele>294</ele>
        <time>2013-04-11T14:03:17Z</time>
      </trkpt>
      <trkpt lat="43.97652" lon="5.13425">
        <ele>293</ele>
        <time>2013-04-11T14:04:25Z</time>
      </trkpt>
      <trkpt lat="43.97654" lon="5.13426">
        <ele>293</ele>
        <time>2013-04-11T14:05:29Z</time>
      </trkpt>
      <trkpt lat="43.97658" lon="5.13435">
        <ele>293</ele>
        <time>2013-04-11T14:06:04Z</time>
      </trkpt>
      <trkpt lat="43.97658" lon="5.13436">
        <ele>293</ele>
        <time>2013-04-11T14:06:05Z</time>
      </trkpt>
      <trkpt lat="43.97657" lon="5.13453">
        <ele>294</ele>
        <time>2013-04-11T14:06:17Z</time>
      </trkpt>
      <trkpt lat="43.97674" lon="5.13463">
        <ele>294</ele>
        <time>2013-04-11T14:06:39Z</time>
      </trkpt>
      <trkpt lat="43.97676" lon="5.13462">
        <ele>295</ele>
        <time>2013-04-11T14:06:41Z</time>
      </trkpt>
      <trkpt lat="43.97691" lon="5.1344">
        <ele>295</ele>
        <time>2013-04-11T14:07:02Z</time>
      </trkpt>
      <trkpt lat="43.97691" lon="5.13432">
        <ele>295</ele>
        <time>2013-04-11T14:07:10Z</time>
      </trkpt>
      <trkpt lat="43.97706" lon="5.13409">
        <ele>295</ele>
        <time>2013-04-11T14:07:33Z</time>
      </trkpt>
      <trkpt lat="43.97711" lon="5.13401">
        <ele>294</ele>
        <time>2013-04-11T14:07:40Z</time>
      </trkpt>
      <trkpt lat="43.97714" lon="5.13396">
        <ele>295</ele>
        <time>2013-04-11T14:07:44Z</time>
      </trkpt>
      <trkpt lat="43.97724" lon="5.13381">
        <ele>294</ele>
        <time>2013-04-11T14:07:59Z</time>
      </trkpt>
      <trkpt lat="43.9774" lon="5.13368">
        <ele>294</ele>
        <time>2013-04-11T14:08:16Z</time>
      </trkpt>
      <trkpt lat="43.97756" lon="5.1336">
        <ele>295</ele>
        <time>2013-04-11T14:08:33Z</time>
      </trkpt>
      <trkpt lat="43.97777" lon="5.13356">
        <ele>296</ele>
        <time>2013-04-11T14:08:53Z</time>
      </trkpt>
      <trkpt lat="43.97795" lon="5.13349">
        <ele>296</ele>
        <time>2013-04-11T14:09:10Z</time>
      </trkpt>
      <trkpt lat="43.97815" lon="5.1334">
        <ele>296</ele>
        <time>2013-04-11T14:09:30Z</time>
      </trkpt>
      <trkpt lat="43.97832" lon="5.13335">
        <ele>297</ele>
        <time>2013-04-11T14:09:50Z</time>
      </trkpt>
      <trkpt lat="43.97855" lon="5.13329">
        <ele>298</ele>
        <time>2013-04-11T14:10:13Z</time>
      </trkpt>
      <trkpt lat="43.97873" lon="5.13324">
        <ele>298</ele>
        <time>2013-04-11T14:10:31Z</time>
      </trkpt>
      <trkpt lat="43.97891" lon="5.13321">
        <ele>299</ele>
        <time>2013-04-11T14:10:49Z</time>
      </trkpt>
      <trkpt lat="43.97909" lon="5.13315">
        <ele>300</ele>
        <time>2013-04-11T14:11:10Z</time>
      </trkpt>
      <trkpt lat="43.97919" lon="5.13314">
        <ele>300</ele>
        <time>2013-04-11T14:11:33Z</time>
      </trkpt>
      <trkpt lat="43.97926" lon="5.13323">
        <ele>298</ele>
        <time>2013-04-11T14:11:49Z</time>
      </trkpt>
      <trkpt lat="43.9793" lon="5.13329">
        <ele>297</ele>
        <time>2013-04-11T14:12:39Z</time>
      </trkpt>
      <trkpt lat="43.97939" lon="5.13335">
        <ele>296</ele>
        <time>2013-04-11T14:12:53Z</time>
      </trkpt>
      <trkpt lat="43.97952" lon="5.13336">
        <ele>293</ele>
        <time>2013-04-11T14:13:15Z</time>
      </trkpt>
      <trkpt lat="43.97959" lon="5.1334">
        <ele>291</ele>
        <time>2013-04-11T14:13:28Z</time>
      </trkpt>
      <trkpt lat="43.97967" lon="5.13339">
        <ele>289</ele>
        <time>2013-04-11T14:13:38Z</time>
      </trkpt>
      <trkpt lat="43.97972" lon="5.13339">
        <ele>286</ele>
        <time>2013-04-11T14:13:51Z</time>
      </trkpt>
      <trkpt lat="43.9798" lon="5.13339">
        <ele>284</ele>
        <time>2013-04-11T14:14:03Z</time>
      </trkpt>
      <trkpt lat="43.97991" lon="5.13333">
        <ele>282</ele>
        <time>2013-04-11T14:14:18Z</time>
      </trkpt>
      <trkpt lat="43.97999" lon="5.13328">
        <ele>278</ele>
        <time>2013-04-11T14:14:32Z</time>
      </trkpt>
      <trkpt lat="43.98011" lon="5.1332">
        <ele>276</ele>
        <time>2013-04-11T14:14:51Z</time>
      </trkpt>
      <trkpt lat="43.98025" lon="5.1331">
        <ele>272</ele>
        <time>2013-04-11T14:15:08Z</time>
      </trkpt>
      <trkpt lat="43.98037" lon="5.13303">
        <ele>270</ele>
        <time>2013-04-11T14:15:23Z</time>
      </trkpt>
      <trkpt lat="43.98044" lon="5.13291">
        <ele>269</ele>
        <time>2013-04-11T14:15:40Z</time>
      </trkpt>
      <trkpt lat="43.9805" lon="5.13283">
        <ele>268</ele>
        <time>2013-04-11T14:15:54Z</time>
      </trkpt>
      <trkpt lat="43.98054" lon="5.13277">
        <ele>268</ele>
        <time>2013-04-11T14:16:01Z</time>
      </trkpt>
      <trkpt lat="43.98065" lon="5.13265">
        <ele>266</ele>
        <time>2013-04-11T14:16:18Z</time>
      </trkpt>
      <trkpt lat="43.98069" lon="5.13265">
        <ele>265</ele>
        <time>2013-04-11T14:16:28Z</time>
      </trkpt>
      <trkpt lat="43.98079" lon="5.13255">
        <ele>265</ele>
        <time>2013-04-11T14:16:44Z</time>
      </trkpt>
      <trkpt lat="43.9808" lon="5.13253">
        <ele>264</ele>
        <time>2013-04-11T14:16:46Z</time>
      </trkpt>
      <trkpt lat="43.98085" lon="5.13238">
        <ele>264</ele>
        <time>2013-04-11T14:17:03Z</time>
      </trkpt>
      <trkpt lat="43.9809" lon="5.1323">
        <ele>263</ele>
        <time>2013-04-11T14:17:16Z</time>
      </trkpt>
      <trkpt lat="43.98095" lon="5.13231">
        <ele>263</ele>
        <time>2013-04-11T14:17:21Z</time>
      </trkpt>
      <trkpt lat="43.98103" lon="5.13228">
        <ele>263</ele>
        <time>2013-04-11T14:17:40Z</time>
      </trkpt>
      <trkpt lat="43.98094" lon="5.1323">
        <ele>263</ele>
        <time>2013-04-11T14:17:59Z</time>
      </trkpt>
      <trkpt lat="43.98087" lon="5.13236">
        <ele>264</ele>
        <time>2013-04-11T14:18:16Z</time>
      </trkpt>
      <trkpt lat="43.9808" lon="5.13259">
        <ele>264</ele>
        <time>2013-04-11T14:18:34Z</time>
      </trkpt>
      <trkpt lat="43.98065" lon="5.13265">
        <ele>266</ele>
        <time>2013-04-11T14:18:52Z</time>
      </trkpt>
      <trkpt lat="43.98054" lon="5.13277">
        <ele>267</ele>
        <time>2013-04-11T14:19:10Z</time>
      </trkpt>
      <trkpt lat="43.98045" lon="5.13294">
        <ele>266</ele>
        <time>2013-04-11T14:19:27Z</time>
      </trkpt>
      <trkpt lat="43.98045" lon="5.13295">
        <ele>266</ele>
        <time>2013-04-11T14:19:28Z</time>
      </trkpt>
      <trkpt lat="43.9805" lon="5.13303">
        <ele>266</ele>
        <time>2013-04-11T14:19:37Z</time>
      </trkpt>
      <trkpt lat="43.98058" lon="5.13304">
        <ele>266</ele>
        <time>2013-04-11T14:19:45Z</time>
      </trkpt>
      <trkpt lat="43.98076" lon="5.13296">
        <ele>268</ele>
        <time>2013-04-11T14:20:09Z</time>
      </trkpt>
      <trkpt lat="43.98088" lon="5.13287">
        <ele>269</ele>
        <time>2013-04-11T14:20:25Z</time>
      </trkpt>
      <trkpt lat="43.98098" lon="5.13276">
        <ele>271</ele>
        <time>2013-04-11T14:20:40Z</time>
      </trkpt>
      <trkpt lat="43.98109" lon="5.13273">
        <ele>273</ele>
        <time>2013-04-11T14:20:53Z</time>
      </trkpt>
      <trkpt lat="43.98121" lon="5.13276">
        <ele>274</ele>
        <time>2013-04-11T14:21:06Z</time>
      </trkpt>
      <trkpt lat="43.98132" lon="5.13271">
        <ele>276</ele>
        <time>2013-04-11T14:21:21Z</time>
      </trkpt>
      <trkpt lat="43.98143" lon="5.13267">
        <ele>277</ele>
        <time>2013-04-11T14:21:34Z</time>
      </trkpt>
      <trkpt lat="43.98158" lon="5.13261">
        <ele>278</ele>
        <time>2013-04-11T14:21:53Z</time>
      </trkpt>
      <trkpt lat="43.9817" lon="5.1326">
        <ele>279</ele>
        <time>2013-04-11T14:22:09Z</time>
      </trkpt>
      <trkpt lat="43.98187" lon="5.13253">
        <ele>281</ele>
        <time>2013-04-11T14:22:28Z</time>
      </trkpt>
      <trkpt lat="43.98187" lon="5.13253">
        <ele>281</ele>
        <time>2013-04-11T14:22:29Z</time>
      </trkpt>
      <trkpt lat="43.98188" lon="5.13251">
        <ele>281</ele>
        <time>2013-04-11T14:22:31Z</time>
      </trkpt>
      <trkpt lat="43.98191" lon="5.13247">
        <ele>281</ele>
        <time>2013-04-11T14:22:33Z</time>
      </trkpt>
      <trkpt lat="43.98192" lon="5.13245">
        <ele>281</ele>
        <time>2013-04-11T14:22:35Z</time>
      </trkpt>
      <trkpt lat="43.98204" lon="5.1323">
        <ele>284</ele>
        <time>2013-04-11T14:22:54Z</time>
      </trkpt>
      <trkpt lat="43.98215" lon="5.13224">
        <ele>284</ele>
        <time>2013-04-11T14:23:09Z</time>
      </trkpt>
      <trkpt lat="43.98228" lon="5.13218">
        <ele>286</ele>
        <time>2013-04-11T14:23:25Z</time>
      </trkpt>
      <trkpt lat="43.98241" lon="5.13213">
        <ele>288</ele>
        <time>2013-04-11T14:23:42Z</time>
      </trkpt>
      <trkpt lat="43.98242" lon="5.13213">
        <ele>288</ele>
        <time>2013-04-11T14:23:43Z</time>
      </trkpt>
      <trkpt lat="43.98257" lon="5.13213">
        <ele>289</ele>
        <time>2013-04-11T14:24:00Z</time>
      </trkpt>
      <trkpt lat="43.98271" lon="5.13214">
        <ele>290</ele>
        <time>2013-04-11T14:24:17Z</time>
      </trkpt>
      <trkpt lat="43.98284" lon="5.13209">
        <ele>291</ele>
        <time>2013-04-11T14:24:31Z</time>
      </trkpt>
      <trkpt lat="43.98296" lon="5.13198">
        <ele>292</ele>
        <time>2013-04-11T14:24:46Z</time>
      </trkpt>
      <trkpt lat="43.9831" lon="5.13185">
        <ele>294</ele>
        <time>2013-04-11T14:25:06Z</time>
      </trkpt>
      <trkpt lat="43.98319" lon="5.13181">
        <ele>295</ele>
        <time>2013-04-11T14:25:18Z</time>
      </trkpt>
      <trkpt lat="43.98335" lon="5.13177">
        <ele>296</ele>
        <time>2013-04-11T14:25:34Z</time>
      </trkpt>
      <trkpt lat="43.98343" lon="5.13176">
        <ele>297</ele>
        <time>2013-04-11T14:25:46Z</time>
      </trkpt>
      <trkpt lat="43.98354" lon="5.13178">
        <ele>297</ele>
        <time>2013-04-11T14:26:00Z</time>
      </trkpt>
      <trkpt lat="43.98359" lon="5.13177">
        <ele>298</ele>
        <time>2013-04-11T14:26:18Z</time>
      </trkpt>
      <trkpt lat="43.9836" lon="5.13176">
        <ele>297</ele>
        <time>2013-04-11T14:26:57Z</time>
      </trkpt>
      <trkpt lat="43.9836" lon="5.13176">
        <ele>297</ele>
        <time>2013-04-11T14:28:06Z</time>
      </trkpt>
      <trkpt lat="43.98361" lon="5.13171">
        <ele>297</ele>
        <time>2013-04-11T14:28:33Z</time>
      </trkpt>
      <trkpt lat="43.98365" lon="5.13141">
        <ele>296</ele>
        <time>2013-04-11T14:29:00Z</time>
      </trkpt>
      <trkpt lat="43.98365" lon="5.13129">
        <ele>296</ele>
        <time>2013-04-11T14:29:09Z</time>
      </trkpt>
      <trkpt lat="43.98361" lon="5.13112">
        <ele>294</ele>
        <time>2013-04-11T14:29:23Z</time>
      </trkpt>
      <trkpt lat="43.98347" lon="5.13119">
        <ele>292</ele>
        <time>2013-04-11T14:29:41Z</time>
      </trkpt>
      <trkpt lat="43.98346" lon="5.13112">
        <ele>291</ele>
        <time>2013-04-11T14:29:51Z</time>
      </trkpt>
      <trkpt lat="43.98348" lon="5.13106">
        <ele>290</ele>
        <time>2013-04-11T14:29:59Z</time>
      </trkpt>
      <trkpt lat="43.9835" lon="5.13091">
        <ele>289</ele>
        <time>2013-04-11T14:30:14Z</time>
      </trkpt>
      <trkpt lat="43.98345" lon="5.13084">
        <ele>288</ele>
        <time>2013-04-11T14:30:22Z</time>
      </trkpt>
      <trkpt lat="43.98339" lon="5.13075">
        <ele>286</ele>
        <time>2013-04-11T14:30:34Z</time>
      </trkpt>
      <trkpt lat="43.98335" lon="5.13068">
        <ele>285</ele>
        <time>2013-04-11T14:30:45Z</time>
      </trkpt>
      <trkpt lat="43.98331" lon="5.1306">
        <ele>283</ele>
        <time>2013-04-11T14:30:57Z</time>
      </trkpt>
      <trkpt lat="43.98327" lon="5.13048">
        <ele>281</ele>
        <time>2013-04-11T14:31:10Z</time>
      </trkpt>
      <trkpt lat="43.9833" lon="5.13033">
        <ele>278</ele>
        <time>2013-04-11T14:31:25Z</time>
      </trkpt>
      <trkpt lat="43.98337" lon="5.13022">
        <ele>276</ele>
        <time>2013-04-11T14:31:39Z</time>
      </trkpt>
      <trkpt lat="43.98342" lon="5.13009">
        <ele>275</ele>
        <time>2013-04-11T14:31:53Z</time>
      </trkpt>
      <trkpt lat="43.98345" lon="5.12994">
        <ele>273</ele>
        <time>2013-04-11T14:32:08Z</time>
      </trkpt>
      <trkpt lat="43.98344" lon="5.1298">
        <ele>271</ele>
        <time>2013-04-11T14:32:23Z</time>
      </trkpt>
      <trkpt lat="43.98341" lon="5.12967">
        <ele>269</ele>
        <time>2013-04-11T14:32:36Z</time>
      </trkpt>
      <trkpt lat="43.98341" lon="5.12965">
        <ele>270</ele>
        <time>2013-04-11T14:33:26Z</time>
      </trkpt>
      <trkpt lat="43.98343" lon="5.12961">
        <ele>270</ele>
        <time>2013-04-11T14:33:54Z</time>
      </trkpt>
      <trkpt lat="43.98344" lon="5.1296">
        <ele>270</ele>
        <time>2013-04-11T14:33:55Z</time>
      </trkpt>
      <trkpt lat="43.98346" lon="5.12953">
        <ele>270</ele>
        <time>2013-04-11T14:34:00Z</time>
      </trkpt>
      <trkpt lat="43.98348" lon="5.1295">
        <ele>270</ele>
        <time>2013-04-11T14:34:03Z</time>
      </trkpt>
      <trkpt lat="43.98351" lon="5.1294">
        <ele>269</ele>
        <time>2013-04-11T14:34:11Z</time>
      </trkpt>
      <trkpt lat="43.98358" lon="5.12921">
        <ele>270</ele>
        <time>2013-04-11T14:34:28Z</time>
      </trkpt>
      <trkpt lat="43.98371" lon="5.12912">
        <ele>270</ele>
        <time>2013-04-11T14:34:41Z</time>
      </trkpt>
      <trkpt lat="43.98386" lon="5.12893">
        <ele>268</ele>
        <time>2013-04-11T14:35:01Z</time>
      </trkpt>
      <trkpt lat="43.98397" lon="5.12879">
        <ele>268</ele>
        <time>2013-04-11T14:35:20Z</time>
      </trkpt>
      <trkpt lat="43.98402" lon="5.12871">
        <ele>267</ele>
        <time>2013-04-11T14:35:32Z</time>
      </trkpt>
      <trkpt lat="43.98406" lon="5.12865">
        <ele>268</ele>
        <time>2013-04-11T14:35:36Z</time>
      </trkpt>
      <trkpt lat="43.98413" lon="5.12834">
        <ele>267</ele>
        <time>2013-04-11T14:35:56Z</time>
      </trkpt>
      <trkpt lat="43.98434" lon="5.12823">
        <ele>266</ele>
        <time>2013-04-11T14:36:17Z</time>
      </trkpt>
      <trkpt lat="43.98439" lon="5.12824">
        <ele>266</ele>
        <time>2013-04-11T14:36:20Z</time>
      </trkpt>
      <trkpt lat="43.98444" lon="5.12815">
        <ele>266</ele>
        <time>2013-04-11T14:36:27Z</time>
      </trkpt>
      <trkpt lat="43.98448" lon="5.12804">
        <ele>266</ele>
        <time>2013-04-11T14:36:35Z</time>
      </trkpt>
      <trkpt lat="43.98445" lon="5.12781">
        <ele>266</ele>
        <time>2013-04-11T14:36:52Z</time>
      </trkpt>
      <trkpt lat="43.98441" lon="5.12773">
        <ele>266</ele>
        <time>2013-04-11T14:36:57Z</time>
      </trkpt>
      <trkpt lat="43.98437" lon="5.12764">
        <ele>266</ele>
        <time>2013-04-11T14:37:03Z</time>
      </trkpt>
      <trkpt lat="43.98427" lon="5.12748">
        <ele>266</ele>
        <time>2013-04-11T14:37:18Z</time>
      </trkpt>
      <trkpt lat="43.98421" lon="5.12736">
        <ele>266</ele>
        <time>2013-04-11T14:37:30Z</time>
      </trkpt>
      <trkpt lat="43.98416" lon="5.12723">
        <ele>268</ele>
        <time>2013-04-11T14:37:44Z</time>
      </trkpt>
      <trkpt lat="43.98415" lon="5.12703">
        <ele>268</ele>
        <time>2013-04-11T14:37:59Z</time>
      </trkpt>
      <trkpt lat="43.98418" lon="5.12675">
        <ele>269</ele>
        <time>2013-04-11T14:38:19Z</time>
      </trkpt>
      <trkpt lat="43.98423" lon="5.12664">
        <ele>269</ele>
        <time>2013-04-11T14:38:28Z</time>
      </trkpt>
      <trkpt lat="43.98436" lon="5.12643">
        <ele>269</ele>
        <time>2013-04-11T14:38:47Z</time>
      </trkpt>
      <trkpt lat="43.98444" lon="5.12622">
        <ele>269</ele>
        <time>2013-04-11T14:39:06Z</time>
      </trkpt>
      <trkpt lat="43.98448" lon="5.12608">
        <ele>271</ele>
        <time>2013-04-11T14:39:19Z</time>
      </trkpt>
      <trkpt lat="43.98456" lon="5.12592">
        <ele>273</ele>
        <time>2013-04-11T14:39:35Z</time>
      </trkpt>
      <trkpt lat="43.98459" lon="5.12578">
        <ele>274</ele>
        <time>2013-04-11T14:39:49Z</time>
      </trkpt>
      <trkpt lat="43.9846" lon="5.1256">
        <ele>274</ele>
        <time>2013-04-11T14:40:00Z</time>
      </trkpt>
      <trkpt lat="43.98468" lon="5.12544">
        <ele>276</ele>
        <time>2013-04-11T14:40:15Z</time>
      </trkpt>
      <trkpt lat="43.9847" lon="5.12531">
        <ele>277</ele>
        <time>2013-04-11T14:40:27Z</time>
      </trkpt>
      <trkpt lat="43.98478" lon="5.12511">
        <ele>277</ele>
        <time>2013-04-11T14:40:45Z</time>
      </trkpt>
      <trkpt lat="43.98484" lon="5.12508">
        <ele>277</ele>
        <time>2013-04-11T14:40:52Z</time>
      </trkpt>
      <trkpt lat="43.98502" lon="5.12504">
        <ele>276</ele>
        <time>2013-04-11T14:41:10Z</time>
      </trkpt>
      <trkpt lat="43.98522" lon="5.12508">
        <ele>277</ele>
        <time>2013-04-11T14:41:29Z</time>
      </trkpt>
      <trkpt lat="43.98536" lon="5.12508">
        <ele>277</ele>
        <time>2013-04-11T14:41:44Z</time>
      </trkpt>
      <trkpt lat="43.98548" lon="5.12494">
        <ele>279</ele>
        <time>2013-04-11T14:42:00Z</time>
      </trkpt>
      <trkpt lat="43.98546" lon="5.12481">
        <ele>278</ele>
        <time>2013-04-11T14:42:10Z</time>
      </trkpt>
      <trkpt lat="43.98545" lon="5.12479">
        <ele>279</ele>
        <time>2013-04-11T14:42:12Z</time>
      </trkpt>
      <trkpt lat="43.98542" lon="5.12471">
        <ele>279</ele>
        <time>2013-04-11T14:42:19Z</time>
      </trkpt>
      <trkpt lat="43.98533" lon="5.12452">
        <ele>278</ele>
        <time>2013-04-11T14:42:36Z</time>
      </trkpt>
      <trkpt lat="43.98532" lon="5.12451">
        <ele>278</ele>
        <time>2013-04-11T14:42:37Z</time>
      </trkpt>
      <trkpt lat="43.98527" lon="5.12428">
        <ele>280</ele>
        <time>2013-04-11T14:42:55Z</time>
      </trkpt>
      <trkpt lat="43.98524" lon="5.12416">
        <ele>281</ele>
        <time>2013-04-11T14:43:04Z</time>
      </trkpt>
      <trkpt lat="43.9853" lon="5.12397">
        <ele>282</ele>
        <time>2013-04-11T14:43:20Z</time>
      </trkpt>
      <trkpt lat="43.98534" lon="5.12393">
        <ele>283</ele>
        <time>2013-04-11T14:43:25Z</time>
      </trkpt>
      <trkpt lat="43.98544" lon="5.12369">
        <ele>283</ele>
        <time>2013-04-11T14:43:44Z</time>
      </trkpt>
      <trkpt lat="43.98557" lon="5.12349">
        <ele>282</ele>
        <time>2013-04-11T14:44:02Z</time>
      </trkpt>
      <trkpt lat="43.9856" lon="5.12345">
        <ele>282</ele>
        <time>2013-04-11T14:44:06Z</time>
      </trkpt>
      <trkpt lat="43.98564" lon="5.12338">
        <ele>283</ele>
        <time>2013-04-11T14:44:12Z</time>
      </trkpt>
      <trkpt lat="43.98573" lon="5.12321">
        <ele>282</ele>
        <time>2013-04-11T14:44:27Z</time>
      </trkpt>
      <trkpt lat="43.98576" lon="5.12317">
        <ele>283</ele>
        <time>2013-04-11T14:44:30Z</time>
      </trkpt>
      <trkpt lat="43.98579" lon="5.12308">
        <ele>283</ele>
        <time>2013-04-11T14:44:49Z</time>
      </trkpt>
      <trkpt lat="43.98579" lon="5.12303">
        <ele>283</ele>
        <time>2013-04-11T14:45:21Z</time>
      </trkpt>
      <trkpt lat="43.98578" lon="5.12301">
        <ele>284</ele>
        <time>2013-04-11T14:45:55Z</time>
      </trkpt>
      <trkpt lat="43.9858" lon="5.12282">
        <ele>284</ele>
        <time>2013-04-11T14:46:14Z</time>
      </trkpt>
      <trkpt lat="43.98588" lon="5.12259">
        <ele>283</ele>
        <time>2013-04-11T14:46:34Z</time>
      </trkpt>
      <trkpt lat="43.98592" lon="5.12247">
        <ele>284</ele>
        <time>2013-04-11T14:46:43Z</time>
      </trkpt>
      <trkpt lat="43.98598" lon="5.12227">
        <ele>284</ele>
        <time>2013-04-11T14:46:58Z</time>
      </trkpt>
      <trkpt lat="43.98602" lon="5.12206">
        <ele>283</ele>
        <time>2013-04-11T14:47:12Z</time>
      </trkpt>
      <trkpt lat="43.98602" lon="5.12202">
        <ele>283</ele>
        <time>2013-04-11T14:47:15Z</time>
      </trkpt>
      <trkpt lat="43.98603" lon="5.12174">
        <ele>283</ele>
        <time>2013-04-11T14:47:35Z</time>
      </trkpt>
      <trkpt lat="43.98607" lon="5.12157">
        <ele>283</ele>
        <time>2013-04-11T14:47:48Z</time>
      </trkpt>
      <trkpt lat="43.98616" lon="5.12129">
        <ele>283</ele>
        <time>2013-04-11T14:48:08Z</time>
      </trkpt>
      <trkpt lat="43.98626" lon="5.12114">
        <ele>283</ele>
        <time>2013-04-11T14:48:23Z</time>
      </trkpt>
      <trkpt lat="43.98642" lon="5.12104">
        <ele>282</ele>
        <time>2013-04-11T14:48:40Z</time>
      </trkpt>
      <trkpt lat="43.98653" lon="5.12101">
        <ele>282</ele>
        <time>2013-04-11T14:48:52Z</time>
      </trkpt>
      <trkpt lat="43.98672" lon="5.12106">
        <ele>281</ele>
        <time>2013-04-11T14:49:11Z</time>
      </trkpt>
      <trkpt lat="43.98692" lon="5.12104">
        <ele>281</ele>
        <time>2013-04-11T14:49:28Z</time>
      </trkpt>
      <trkpt lat="43.98705" lon="5.12101">
        <ele>280</ele>
        <time>2013-04-11T14:49:41Z</time>
      </trkpt>
      <trkpt lat="43.9872" lon="5.12098">
        <ele>280</ele>
        <time>2013-04-11T14:49:56Z</time>
      </trkpt>
      <trkpt lat="43.98733" lon="5.12091">
        <ele>280</ele>
        <time>2013-04-11T14:50:12Z</time>
      </trkpt>
      <trkpt lat="43.98737" lon="5.12086">
        <ele>281</ele>
        <time>2013-04-11T14:50:29Z</time>
      </trkpt>
      <trkpt lat="43.98737" lon="5.12083">
        <ele>280</ele>
        <time>2013-04-11T14:51:36Z</time>
      </trkpt>
      <trkpt lat="43.98734" lon="5.12072">
        <ele>278</ele>
        <time>2013-04-11T14:51:48Z</time>
      </trkpt>
      <trkpt lat="43.98733" lon="5.12071">
        <ele>277</ele>
        <time>2013-04-11T14:51:49Z</time>
      </trkpt>
      <trkpt lat="43.98733" lon="5.12054">
        <ele>277</ele>
        <time>2013-04-11T14:52:01Z</time>
      </trkpt>
      <trkpt lat="43.98739" lon="5.12029">
        <ele>277</ele>
        <time>2013-04-11T14:52:21Z</time>
      </trkpt>
      <trkpt lat="43.9874" lon="5.12027">
        <ele>277</ele>
        <time>2013-04-11T14:52:23Z</time>
      </trkpt>
      <trkpt lat="43.98753" lon="5.12025">
        <ele>274</ele>
        <time>2013-04-11T14:52:36Z</time>
      </trkpt>
      <trkpt lat="43.98763" lon="5.12023">
        <ele>271</ele>
        <time>2013-04-11T14:52:52Z</time>
      </trkpt>
      <trkpt lat="43.98774" lon="5.12018">
        <ele>268</ele>
        <time>2013-04-11T14:53:13Z</time>
      </trkpt>
      <trkpt lat="43.98773" lon="5.12021">
        <ele>266</ele>
        <time>2013-04-11T14:53:25Z</time>
      </trkpt>
      <trkpt lat="43.98762" lon="5.12005">
        <ele>264</ele>
        <time>2013-04-11T14:53:38Z</time>
      </trkpt>
      <trkpt lat="43.9876" lon="5.11992">
        <ele>261</ele>
        <time>2013-04-11T14:53:49Z</time>
      </trkpt>
      <trkpt lat="43.98764" lon="5.1198">
        <ele>257</ele>
        <time>2013-04-11T14:54:08Z</time>
      </trkpt>
      <trkpt lat="43.98753" lon="5.11981">
        <ele>255</ele>
        <time>2013-04-11T14:54:25Z</time>
      </trkpt>
      <trkpt lat="43.98742" lon="5.11973">
        <ele>252</ele>
        <time>2013-04-11T14:54:40Z</time>
      </trkpt>
      <trkpt lat="43.98735" lon="5.1196">
        <ele>249</ele>
        <time>2013-04-11T14:54:53Z</time>
      </trkpt>
      <trkpt lat="43.98728" lon="5.11947">
        <ele>245</ele>
        <time>2013-04-11T14:55:08Z</time>
      </trkpt>
      <trkpt lat="43.98718" lon="5.11933">
        <ele>242</ele>
        <time>2013-04-11T14:55:23Z</time>
      </trkpt>
      <trkpt lat="43.98718" lon="5.1193">
        <ele>242</ele>
        <time>2013-04-11T14:55:25Z</time>
      </trkpt>
      <trkpt lat="43.98706" lon="5.1192">
        <ele>240</ele>
        <time>2013-04-11T14:55:39Z</time>
      </trkpt>
      <trkpt lat="43.9869" lon="5.11921">
        <ele>238</ele>
        <time>2013-04-11T14:55:55Z</time>
      </trkpt>
      <trkpt lat="43.9868" lon="5.11924">
        <ele>234</ele>
        <time>2013-04-11T14:56:04Z</time>
      </trkpt>
      <trkpt lat="43.98679" lon="5.11924">
        <ele>234</ele>
        <time>2013-04-11T14:56:05Z</time>
      </trkpt>
      <trkpt lat="43.98663" lon="5.11929">
        <ele>232</ele>
        <time>2013-04-11T14:56:22Z</time>
      </trkpt>
      <trkpt lat="43.98651" lon="5.11936">
        <ele>229</ele>
        <time>2013-04-11T14:56:35Z</time>
      </trkpt>
      <trkpt lat="43.98633" lon="5.11944">
        <ele>226</ele>
        <time>2013-04-11T14:56:54Z</time>
      </trkpt>
      <trkpt lat="43.98618" lon="5.11951">
        <ele>225</ele>
        <time>2013-04-11T14:57:11Z</time>
      </trkpt>
      <trkpt lat="43.9861" lon="5.11951">
        <ele>224</ele>
        <time>2013-04-11T14:57:29Z</time>
      </trkpt>
      <trkpt lat="43.98609" lon="5.11951">
        <ele>224</ele>
        <time>2013-04-11T14:57:53Z</time>
      </trkpt>
      <trkpt lat="43.98605" lon="5.11954">
        <ele>224</ele>
        <time>2013-04-11T14:58:23Z</time>
      </trkpt>
      <trkpt lat="43.98623" lon="5.11961">
        <ele>224</ele>
        <time>2013-04-11T15:00:23Z</time>
      </trkpt>
      <trkpt lat="43.98611" lon="5.11955">
        <ele>224</ele>
        <time>2013-04-11T15:00:56Z</time>
      </trkpt>
      <trkpt lat="43.98614" lon="5.11954">
        <ele>224</ele>
        <time>2013-04-11T15:02:48Z</time>
      </trkpt>
      <trkpt lat="43.9861" lon="5.11952">
        <ele>225</ele>
        <time>2013-04-11T15:03:10Z</time>
      </trkpt>
      <trkpt lat="43.98605" lon="5.11951">
        <ele>225</ele>
        <time>2013-04-11T15:03:26Z</time>
      </trkpt>
      <trkpt lat="43.98604" lon="5.1195">
        <ele>224</ele>
        <time>2013-04-11T15:04:04Z</time>
      </trkpt>
      <trkpt lat="43.98596" lon="5.11939">
        <ele>223</ele>
        <time>2013-04-11T15:04:20Z</time>
      </trkpt>
      <trkpt lat="43.98577" lon="5.11916">
        <ele>219</ele>
        <time>2013-04-11T15:04:44Z</time>
      </trkpt>
      <trkpt lat="43.98561" lon="5.11895">
        <ele>218</ele>
        <time>2013-04-11T15:05:05Z</time>
      </trkpt>
      <trkpt lat="43.98539" lon="5.11889">
        <ele>219</ele>
        <time>2013-04-11T15:05:27Z</time>
      </trkpt>
      <trkpt lat="43.98515" lon="5.11884">
        <ele>220</ele>
        <time>2013-04-11T15:05:53Z</time>
      </trkpt>
      <trkpt lat="43.98495" lon="5.11878">
        <ele>221</ele>
        <time>2013-04-11T15:06:18Z</time>
      </trkpt>
      <trkpt lat="43.9849" lon="5.11877">
        <ele>222</ele>
        <time>2013-04-11T15:06:25Z</time>
      </trkpt>
      <trkpt lat="43.98474" lon="5.11872">
        <ele>224</ele>
        <time>2013-04-11T15:06:42Z</time>
      </trkpt>
      <trkpt lat="43.9846" lon="5.11867">
        <ele>224</ele>
        <time>2013-04-11T15:06:57Z</time>
      </trkpt>
      <trkpt lat="43.98447" lon="5.11862">
        <ele>225</ele>
        <time>2013-04-11T15:07:10Z</time>
      </trkpt>
      <trkpt lat="43.98427" lon="5.11858">
        <ele>227</ele>
        <time>2013-04-11T15:07:28Z</time>
      </trkpt>
      <trkpt lat="43.98421" lon="5.11874">
        <ele>228</ele>
        <time>2013-04-11T15:07:41Z</time>
      </trkpt>
      <trkpt lat="43.98427" lon="5.11895">
        <ele>231</ele>
        <time>2013-04-11T15:08:01Z</time>
      </trkpt>
      <trkpt lat="43.98428" lon="5.11911">
        <ele>234</ele>
        <time>2013-04-11T15:08:19Z</time>
      </trkpt>
      <trkpt lat="43.98414" lon="5.11911">
        <ele>236</ele>
        <time>2013-04-11T15:08:37Z</time>
      </trkpt>
      <trkpt lat="43.98421" lon="5.11926">
        <ele>239</ele>
        <time>2013-04-11T15:08:57Z</time>
      </trkpt>
      <trkpt lat="43.98423" lon="5.11944">
        <ele>241</ele>
        <time>2013-04-11T15:09:12Z</time>
      </trkpt>
      <trkpt lat="43.98424" lon="5.11963">
        <ele>244</ele>
        <time>2013-04-11T15:09:31Z</time>
      </trkpt>
      <trkpt lat="43.98422" lon="5.11974">
        <ele>244</ele>
        <time>2013-04-11T15:10:01Z</time>
      </trkpt>
      <trkpt lat="43.98413" lon="5.11964">
        <ele>246</ele>
        <time>2013-04-11T15:10:29Z</time>
      </trkpt>
      <trkpt lat="43.98405" lon="5.11953">
        <ele>250</ele>
        <time>2013-04-11T15:10:50Z</time>
      </trkpt>
      <trkpt lat="43.98391" lon="5.11946">
        <ele>252</ele>
        <time>2013-04-11T15:11:10Z</time>
      </trkpt>
      <trkpt lat="43.9838" lon="5.1194">
        <ele>255</ele>
        <time>2013-04-11T15:11:32Z</time>
      </trkpt>
      <trkpt lat="43.98371" lon="5.11952">
        <ele>256</ele>
        <time>2013-04-11T15:12:00Z</time>
      </trkpt>
      <trkpt lat="43.98367" lon="5.11957">
        <ele>256</ele>
        <time>2013-04-11T15:12:32Z</time>
      </trkpt>
      <trkpt lat="43.98361" lon="5.1196">
        <ele>256</ele>
        <time>2013-04-11T15:13:07Z</time>
      </trkpt>
      <trkpt lat="43.98351" lon="5.1196">
        <ele>256</ele>
        <time>2013-04-11T15:13:30Z</time>
      </trkpt>
      <trkpt lat="43.98352" lon="5.11958">
        <ele>257</ele>
        <time>2013-04-11T15:13:53Z</time>
      </trkpt>
      <trkpt lat="43.98331" lon="5.11966">
        <ele>256</ele>
        <time>2013-04-11T15:14:37Z</time>
      </trkpt>
      <trkpt lat="43.98319" lon="5.1197">
        <ele>256</ele>
        <time>2013-04-11T15:14:52Z</time>
      </trkpt>
      <trkpt lat="43.98302" lon="5.1197">
        <ele>256</ele>
        <time>2013-04-11T15:15:14Z</time>
      </trkpt>
      <trkpt lat="43.98282" lon="5.11979">
        <ele>254</ele>
        <time>2013-04-11T15:15:38Z</time>
      </trkpt>
      <trkpt lat="43.98279" lon="5.11965">
        <ele>254</ele>
        <time>2013-04-11T15:15:55Z</time>
      </trkpt>
      <trkpt lat="43.98293" lon="5.11953">
        <ele>252</ele>
        <time>2013-04-11T15:16:15Z</time>
      </trkpt>
      <trkpt lat="43.98303" lon="5.11947">
        <ele>251</ele>
        <time>2013-04-11T15:16:27Z</time>
      </trkpt>
      <trkpt lat="43.98308" lon="5.11945">
        <ele>249</ele>
        <time>2013-04-11T15:16:33Z</time>
      </trkpt>
      <trkpt lat="43.98318" lon="5.11934">
        <ele>246</ele>
        <time>2013-04-11T15:16:50Z</time>
      </trkpt>
      <trkpt lat="43.98319" lon="5.11918">
        <ele>244</ele>
        <time>2013-04-11T15:17:07Z</time>
      </trkpt>
      <trkpt lat="43.98314" lon="5.11911">
        <ele>243</ele>
        <time>2013-04-11T15:17:15Z</time>
      </trkpt>
      <trkpt lat="43.98319" lon="5.11904">
        <ele>241</ele>
        <time>2013-04-11T15:17:30Z</time>
      </trkpt>
      <trkpt lat="43.98324" lon="5.11893">
        <ele>240</ele>
        <time>2013-04-11T15:17:43Z</time>
      </trkpt>
      <trkpt lat="43.98322" lon="5.11887">
        <ele>240</ele>
        <time>2013-04-11T15:17:49Z</time>
      </trkpt>
      <trkpt lat="43.98321" lon="5.11869">
        <ele>240</ele>
        <time>2013-04-11T15:18:05Z</time>
      </trkpt>
      <trkpt lat="43.98331" lon="5.11867">
        <ele>239</ele>
        <time>2013-04-11T15:18:18Z</time>
      </trkpt>
      <trkpt lat="43.98344" lon="5.11857">
        <ele>237</ele>
        <time>2013-04-11T15:18:35Z</time>
      </trkpt>
      <trkpt lat="43.98357" lon="5.11845">
        <ele>236</ele>
        <time>2013-04-11T15:18:50Z</time>
      </trkpt>
      <trkpt lat="43.98363" lon="5.11843">
        <ele>235</ele>
        <time>2013-04-11T15:18:55Z</time>
      </trkpt>
      <trkpt lat="43.98376" lon="5.11828">
        <ele>234</ele>
        <time>2013-04-11T15:19:11Z</time>
      </trkpt>
      <trkpt lat="43.98393" lon="5.11813">
        <ele>232</ele>
        <time>2013-04-11T15:19:28Z</time>
      </trkpt>
      <trkpt lat="43.98407" lon="5.11802">
        <ele>231</ele>
        <time>2013-04-11T15:19:42Z</time>
      </trkpt>
      <trkpt lat="43.98408" lon="5.11798">
        <ele>231</ele>
        <time>2013-04-11T15:19:46Z</time>
      </trkpt>
      <trkpt lat="43.98412" lon="5.11793">
        <ele>231</ele>
        <time>2013-04-11T15:19:51Z</time>
      </trkpt>
      <trkpt lat="43.98414" lon="5.11778">
        <ele>229</ele>
        <time>2013-04-11T15:20:04Z</time>
      </trkpt>
      <trkpt lat="43.9841" lon="5.11755">
        <ele>229</ele>
        <time>2013-04-11T15:20:23Z</time>
      </trkpt>
      <trkpt lat="43.98409" lon="5.11742">
        <ele>229</ele>
        <time>2013-04-11T15:20:35Z</time>
      </trkpt>
      <trkpt lat="43.98382" lon="5.11725">
        <ele>229</ele>
        <time>2013-04-11T15:21:01Z</time>
      </trkpt>
      <trkpt lat="43.98368" lon="5.11712">
        <ele>229</ele>
        <time>2013-04-11T15:21:18Z</time>
      </trkpt>
      <trkpt lat="43.98355" lon="5.11695">
        <ele>230</ele>
        <time>2013-04-11T15:21:37Z</time>
      </trkpt>
      <trkpt lat="43.98344" lon="5.11682">
        <ele>230</ele>
        <time>2013-04-11T15:21:52Z</time>
      </trkpt>
      <trkpt lat="43.98329" lon="5.11658">
        <ele>231</ele>
        <time>2013-04-11T15:22:15Z</time>
      </trkpt>
      <trkpt lat="43.98312" lon="5.11642">
        <ele>232</ele>
        <time>2013-04-11T15:22:39Z</time>
      </trkpt>
      <trkpt lat="43.98302" lon="5.11631">
        <ele>233</ele>
        <time>2013-04-11T15:22:55Z</time>
      </trkpt>
      <trkpt lat="43.98289" lon="5.1162">
        <ele>233</ele>
        <time>2013-04-11T15:23:11Z</time>
      </trkpt>
      <trkpt lat="43.98277" lon="5.116">
        <ele>232</ele>
        <time>2013-04-11T15:23:30Z</time>
      </trkpt>
      <trkpt lat="43.98265" lon="5.11564">
        <ele>231</ele>
        <time>2013-04-11T15:23:51Z</time>
      </trkpt>
      <trkpt lat="43.98249" lon="5.11538">
        <ele>231</ele>
        <time>2013-04-11T15:24:14Z</time>
      </trkpt>
      <trkpt lat="43.98241" lon="5.11505">
        <ele>232</ele>
        <time>2013-04-11T15:24:32Z</time>
      </trkpt>
      <trkpt lat="43.98224" lon="5.11483">
        <ele>235</ele>
        <time>2013-04-11T15:24:57Z</time>
      </trkpt>
      <trkpt lat="43.98214" lon="5.11467">
        <ele>237</ele>
        <time>2013-04-11T15:25:15Z</time>
      </trkpt>
      <trkpt lat="43.98206" lon="5.11456">
        <ele>237</ele>
        <time>2013-04-11T15:25:35Z</time>
      </trkpt>
      <trkpt lat="43.98207" lon="5.11454">
        <ele>239</ele>
        <time>2013-04-11T15:25:38Z</time>
      </trkpt>
      <trkpt lat="43.98212" lon="5.11452">
        <ele>239</ele>
        <time>2013-04-11T15:25:49Z</time>
      </trkpt>
      <trkpt lat="43.98238" lon="5.11456">
        <ele>239</ele>
        <time>2013-04-11T15:26:17Z</time>
      </trkpt>
      <trkpt lat="43.98257" lon="5.11461">
        <ele>239</ele>
        <time>2013-04-11T15:26:35Z</time>
      </trkpt>
      <trkpt lat="43.98274" lon="5.11459">
        <ele>240</ele>
        <time>2013-04-11T15:26:53Z</time>
      </trkpt>
      <trkpt lat="43.98295" lon="5.11455">
        <ele>239</ele>
        <time>2013-04-11T15:27:16Z</time>
      </trkpt>
      <trkpt lat="43.98288" lon="5.11425">
        <ele>242</ele>
        <time>2013-04-11T15:27:41Z</time>
      </trkpt>
      <trkpt lat="43.98281" lon="5.11407">
        <ele>245</ele>
        <time>2013-04-11T15:28:01Z</time>
      </trkpt>
      <trkpt lat="43.98278" lon="5.11391">
        <ele>248</ele>
        <time>2013-04-11T15:28:18Z</time>
      </trkpt>
      <trkpt lat="43.98268" lon="5.11386">
        <ele>251</ele>
        <time>2013-04-11T15:28:35Z</time>
      </trkpt>
      <trkpt lat="43.98273" lon="5.11386">
        <ele>251</ele>
        <time>2013-04-11T15:28:42Z</time>
      </trkpt>
      <trkpt lat="43.98278" lon="5.1138">
        <ele>251</ele>
        <time>2013-04-11T15:28:53Z</time>
      </trkpt>
      <trkpt lat="43.9827" lon="5.11382">
        <ele>252</ele>
        <time>2013-04-11T15:29:09Z</time>
      </trkpt>
      <trkpt lat="43.98263" lon="5.11374">
        <ele>255</ele>
        <time>2013-04-11T15:29:26Z</time>
      </trkpt>
      <trkpt lat="43.98261" lon="5.11369">
        <ele>257</ele>
        <time>2013-04-11T15:29:42Z</time>
      </trkpt>
      <trkpt lat="43.98264" lon="5.11361">
        <ele>259</ele>
        <time>2013-04-11T15:29:59Z</time>
      </trkpt>
      <trkpt lat="43.98265" lon="5.11355">
        <ele>262</ele>
        <time>2013-04-11T15:30:15Z</time>
      </trkpt>
      <trkpt lat="43.98266" lon="5.11342">
        <ele>265</ele>
        <time>2013-04-11T15:30:35Z</time>
      </trkpt>
      <trkpt lat="43.98269" lon="5.11337">
        <ele>267</ele>
        <time>2013-04-11T15:30:43Z</time>
      </trkpt>
      <trkpt lat="43.98268" lon="5.11329">
        <ele>269</ele>
        <time>2013-04-11T15:31:06Z</time>
      </trkpt>
      <trkpt lat="43.98266" lon="5.1133">
        <ele>271</ele>
        <time>2013-04-11T15:31:09Z</time>
      </trkpt>
      <trkpt lat="43.98252" lon="5.11325">
        <ele>271</ele>
        <time>2013-04-11T15:31:26Z</time>
      </trkpt>
      <trkpt lat="43.98243" lon="5.11326">
        <ele>269</ele>
        <time>2013-04-11T15:31:40Z</time>
      </trkpt>
      <trkpt lat="43.98231" lon="5.11326">
        <ele>267</ele>
        <time>2013-04-11T15:31:58Z</time>
      </trkpt>
      <trkpt lat="43.98217" lon="5.1132">
        <ele>265</ele>
        <time>2013-04-11T15:32:15Z</time>
      </trkpt>
      <trkpt lat="43.98216" lon="5.1132">
        <ele>265</ele>
        <time>2013-04-11T15:32:16Z</time>
      </trkpt>
      <trkpt lat="43.98212" lon="5.11321">
        <ele>266</ele>
        <time>2013-04-11T15:32:20Z</time>
      </trkpt>
      <trkpt lat="43.98204" lon="5.11318">
        <ele>266</ele>
        <time>2013-04-11T15:32:29Z</time>
      </trkpt>
      <trkpt lat="43.98193" lon="5.11317">
        <ele>267</ele>
        <time>2013-04-11T15:32:46Z</time>
      </trkpt>
      <trkpt lat="43.98183" lon="5.11314">
        <ele>268</ele>
        <time>2013-04-11T15:33:01Z</time>
      </trkpt>
      <trkpt lat="43.98172" lon="5.11302">
        <ele>270</ele>
        <time>2013-04-11T15:33:19Z</time>
      </trkpt>
      <trkpt lat="43.98154" lon="5.11302">
        <ele>272</ele>
        <time>2013-04-11T15:33:42Z</time>
      </trkpt>
      <trkpt lat="43.98145" lon="5.11299">
        <ele>275</ele>
        <time>2013-04-11T15:33:58Z</time>
      </trkpt>
      <trkpt lat="43.98139" lon="5.11292">
        <ele>277</ele>
        <time>2013-04-11T15:34:15Z</time>
      </trkpt>
      <trkpt lat="43.98132" lon="5.1129">
        <ele>280</ele>
        <time>2013-04-11T15:34:35Z</time>
      </trkpt>
      <trkpt lat="43.98125" lon="5.11288">
        <ele>283</ele>
        <time>2013-04-11T15:34:51Z</time>
      </trkpt>
      <trkpt lat="43.98105" lon="5.11287">
        <ele>284</ele>
        <time>2013-04-11T15:35:13Z</time>
      </trkpt>
      <trkpt lat="43.98094" lon="5.11286">
        <ele>286</ele>
        <time>2013-04-11T15:35:31Z</time>
      </trkpt>
      <trkpt lat="43.98084" lon="5.11284">
        <ele>288</ele>
        <time>2013-04-11T15:35:47Z</time>
      </trkpt>
      <trkpt lat="43.98074" lon="5.11284">
        <ele>289</ele>
        <time>2013-04-11T15:36:02Z</time>
      </trkpt>
      <trkpt lat="43.98059" lon="5.11287">
        <ele>291</ele>
        <time>2013-04-11T15:36:22Z</time>
      </trkpt>
      <trkpt lat="43.98046" lon="5.11287">
        <ele>292</ele>
        <time>2013-04-11T15:36:35Z</time>
      </trkpt>
      <trkpt lat="43.98036" lon="5.11285">
        <ele>292</ele>
        <time>2013-04-11T15:36:45Z</time>
      </trkpt>
      <trkpt lat="43.98029" lon="5.11288">
        <ele>293</ele>
        <time>2013-04-11T15:36:49Z</time>
      </trkpt>
      <trkpt lat="43.98025" lon="5.11286">
        <ele>295</ele>
        <time>2013-04-11T15:36:53Z</time>
      </trkpt>
      <trkpt lat="43.98022" lon="5.11281">
        <ele>295</ele>
        <time>2013-04-11T15:36:59Z</time>
      </trkpt>
      <trkpt lat="43.9802" lon="5.11279">
        <ele>295</ele>
        <time>2013-04-11T15:37:01Z</time>
      </trkpt>
      <trkpt lat="43.98008" lon="5.11272">
        <ele>296</ele>
        <time>2013-04-11T15:37:11Z</time>
      </trkpt>
      <trkpt lat="43.98001" lon="5.11266">
        <ele>298</ele>
        <time>2013-04-11T15:37:20Z</time>
      </trkpt>
      <trkpt lat="43.97987" lon="5.11254">
        <ele>298</ele>
        <time>2013-04-11T15:37:35Z</time>
      </trkpt>
      <trkpt lat="43.97988" lon="5.11256">
        <ele>298</ele>
        <time>2013-04-11T15:37:37Z</time>
      </trkpt>
      <trkpt lat="43.98" lon="5.11265">
        <ele>297</ele>
        <time>2013-04-11T15:37:47Z</time>
      </trkpt>
      <trkpt lat="43.98005" lon="5.11267">
        <ele>297</ele>
        <time>2013-04-11T15:37:51Z</time>
      </trkpt>
      <trkpt lat="43.98009" lon="5.11271">
        <ele>297</ele>
        <time>2013-04-11T15:37:55Z</time>
      </trkpt>
      <trkpt lat="43.98015" lon="5.11276">
        <ele>296</ele>
        <time>2013-04-11T15:38:01Z</time>
      </trkpt>
      <trkpt lat="43.98026" lon="5.11288">
        <ele>294</ele>
        <time>2013-04-11T15:38:11Z</time>
      </trkpt>
      <trkpt lat="43.9804" lon="5.11291">
        <ele>292</ele>
        <time>2013-04-11T15:38:21Z</time>
      </trkpt>
      <trkpt lat="43.98054" lon="5.11293">
        <ele>291</ele>
        <time>2013-04-11T15:38:33Z</time>
      </trkpt>
      <trkpt lat="43.98057" lon="5.11293">
        <ele>290</ele>
        <time>2013-04-11T15:38:37Z</time>
      </trkpt>
      <trkpt lat="43.9807" lon="5.11293">
        <ele>288</ele>
        <time>2013-04-11T15:38:51Z</time>
      </trkpt>
      <trkpt lat="43.98077" lon="5.11293">
        <ele>287</ele>
        <time>2013-04-11T15:38:57Z</time>
      </trkpt>
      <trkpt lat="43.98091" lon="5.11296">
        <ele>285</ele>
        <time>2013-04-11T15:39:07Z</time>
      </trkpt>
      <trkpt lat="43.98098" lon="5.11294">
        <ele>284</ele>
        <time>2013-04-11T15:39:14Z</time>
      </trkpt>
      <trkpt lat="43.98098" lon="5.11297">
        <ele>284</ele>
        <time>2013-04-11T15:39:29Z</time>
      </trkpt>
      <trkpt lat="43.98097" lon="5.11298">
        <ele>284</ele>
        <time>2013-04-11T15:39:34Z</time>
      </trkpt>
      <trkpt lat="43.98087" lon="5.11293">
        <ele>287</ele>
        <time>2013-04-11T15:39:48Z</time>
      </trkpt>
      <trkpt lat="43.98086" lon="5.11292">
        <ele>288</ele>
        <time>2013-04-11T15:39:49Z</time>
      </trkpt>
      <trkpt lat="43.98074" lon="5.1129">
        <ele>289</ele>
        <time>2013-04-11T15:40:03Z</time>
      </trkpt>
      <trkpt lat="43.9807" lon="5.11289">
        <ele>290</ele>
        <time>2013-04-11T15:40:09Z</time>
      </trkpt>
      <trkpt lat="43.98064" lon="5.11289">
        <ele>290</ele>
        <time>2013-04-11T15:40:15Z</time>
      </trkpt>
      <trkpt lat="43.9805" lon="5.11291">
        <ele>292</ele>
        <time>2013-04-11T15:40:28Z</time>
      </trkpt>
      <trkpt lat="43.98036" lon="5.1129">
        <ele>294</ele>
        <time>2013-04-11T15:40:41Z</time>
      </trkpt>
      <trkpt lat="43.98027" lon="5.11287">
        <ele>294</ele>
        <time>2013-04-11T15:40:49Z</time>
      </trkpt>
      <trkpt lat="43.98022" lon="5.11284">
        <ele>294</ele>
        <time>2013-04-11T15:40:54Z</time>
      </trkpt>
      <trkpt lat="43.98014" lon="5.11277">
        <ele>296</ele>
        <time>2013-04-11T15:41:02Z</time>
      </trkpt>
      <trkpt lat="43.98004" lon="5.11271">
        <ele>298</ele>
        <time>2013-04-11T15:41:12Z</time>
      </trkpt>
      <trkpt lat="43.97992" lon="5.11262">
        <ele>298</ele>
        <time>2013-04-11T15:41:25Z</time>
      </trkpt>
      <trkpt lat="43.97989" lon="5.1126">
        <ele>299</ele>
        <time>2013-04-11T15:41:28Z</time>
      </trkpt>
      <trkpt lat="43.97986" lon="5.11257">
        <ele>300</ele>
        <time>2013-04-11T15:41:41Z</time>
      </trkpt>
      <trkpt lat="43.97974" lon="5.11245">
        <ele>301</ele>
        <time>2013-04-11T15:43:42Z</time>
      </trkpt>
      <trkpt lat="43.97964" lon="5.11235">
        <ele>302</ele>
        <time>2013-04-11T15:43:52Z</time>
      </trkpt>
      <trkpt lat="43.97948" lon="5.11222">
        <ele>302</ele>
        <time>2013-04-11T15:44:08Z</time>
      </trkpt>
      <trkpt lat="43.97927" lon="5.11199">
        <ele>302</ele>
        <time>2013-04-11T15:44:33Z</time>
      </trkpt>
      <trkpt lat="43.97908" lon="5.11183">
        <ele>302</ele>
        <time>2013-04-11T15:44:53Z</time>
      </trkpt>
      <trkpt lat="43.9789" lon="5.11161">
        <ele>303</ele>
        <time>2013-04-11T15:45:18Z</time>
      </trkpt>
      <trkpt lat="43.97886" lon="5.11149">
        <ele>303</ele>
        <time>2013-04-11T15:45:35Z</time>
      </trkpt>
      <trkpt lat="43.97882" lon="5.11135">
        <ele>303</ele>
        <time>2013-04-11T15:45:46Z</time>
      </trkpt>
      <trkpt lat="43.97876" lon="5.11107">
        <ele>302</ele>
        <time>2013-04-11T15:46:07Z</time>
      </trkpt>
      <trkpt lat="43.97873" lon="5.11099">
        <ele>301</ele>
        <time>2013-04-11T15:46:14Z</time>
      </trkpt>
      <trkpt lat="43.9787" lon="5.1109">
        <ele>300</ele>
        <time>2013-04-11T15:46:21Z</time>
      </trkpt>
      <trkpt lat="43.97858" lon="5.11062">
        <ele>299</ele>
        <time>2013-04-11T15:46:42Z</time>
      </trkpt>
      <trkpt lat="43.97856" lon="5.11056">
        <ele>298</ele>
        <time>2013-04-11T15:46:46Z</time>
      </trkpt>
      <trkpt lat="43.97846" lon="5.11032">
        <ele>296</ele>
        <time>2013-04-11T15:47:07Z</time>
      </trkpt>
      <trkpt lat="43.97842" lon="5.11008">
        <ele>295</ele>
        <time>2013-04-11T15:47:25Z</time>
      </trkpt>
      <trkpt lat="43.97846" lon="5.1099">
        <ele>294</ele>
        <time>2013-04-11T15:47:42Z</time>
      </trkpt>
      <trkpt lat="43.97858" lon="5.10982">
        <ele>293</ele>
        <time>2013-04-11T15:47:56Z</time>
      </trkpt>
      <trkpt lat="43.9787" lon="5.10972">
        <ele>294</ele>
        <time>2013-04-11T15:48:08Z</time>
      </trkpt>
      <trkpt lat="43.97878" lon="5.10951">
        <ele>294</ele>
        <time>2013-04-11T15:48:26Z</time>
      </trkpt>
      <trkpt lat="43.97876" lon="5.1092">
        <ele>294</ele>
        <time>2013-04-11T15:48:48Z</time>
      </trkpt>
      <trkpt lat="43.97878" lon="5.10879">
        <ele>297</ele>
        <time>2013-04-11T15:49:15Z</time>
      </trkpt>
      <trkpt lat="43.97885" lon="5.10859">
        <ele>297</ele>
        <time>2013-04-11T15:49:32Z</time>
      </trkpt>
      <trkpt lat="43.97904" lon="5.10838">
        <ele>296</ele>
        <time>2013-04-11T15:49:55Z</time>
      </trkpt>
      <trkpt lat="43.97925" lon="5.10828">
        <ele>296</ele>
        <time>2013-04-11T15:50:15Z</time>
      </trkpt>
      <trkpt lat="43.97936" lon="5.10809">
        <ele>296</ele>
        <time>2013-04-11T15:50:32Z</time>
      </trkpt>
      <trkpt lat="43.9793" lon="5.10817">
        <ele>293</ele>
        <time>2013-04-11T15:50:48Z</time>
      </trkpt>
      <trkpt lat="43.9792" lon="5.10809">
        <ele>289</ele>
        <time>2013-04-11T15:51:05Z</time>
      </trkpt>
      <trkpt lat="43.97913" lon="5.10806">
        <ele>286</ele>
        <time>2013-04-11T15:51:21Z</time>
      </trkpt>
      <trkpt lat="43.97905" lon="5.1081">
        <ele>286</ele>
        <time>2013-04-11T15:51:29Z</time>
      </trkpt>
      <trkpt lat="43.9789" lon="5.10811">
        <ele>282</ele>
        <time>2013-04-11T15:51:48Z</time>
      </trkpt>
      <trkpt lat="43.97885" lon="5.10808">
        <ele>280</ele>
        <time>2013-04-11T15:51:55Z</time>
      </trkpt>
      <trkpt lat="43.97872" lon="5.10828">
        <ele>277</ele>
        <time>2013-04-11T15:52:17Z</time>
      </trkpt>
      <trkpt lat="43.97866" lon="5.10839">
        <ele>276</ele>
        <time>2013-04-11T15:52:25Z</time>
      </trkpt>
      <trkpt lat="43.97863" lon="5.10843">
        <ele>276</ele>
        <time>2013-04-11T15:52:31Z</time>
      </trkpt>
      <trkpt lat="43.97854" lon="5.10845">
        <ele>276</ele>
        <time>2013-04-11T15:52:47Z</time>
      </trkpt>
      <trkpt lat="43.9785" lon="5.10853">
        <ele>275</ele>
        <time>2013-04-11T15:52:58Z</time>
      </trkpt>
      <trkpt lat="43.97847" lon="5.10847">
        <ele>275</ele>
        <time>2013-04-11T15:53:21Z</time>
      </trkpt>
      <trkpt lat="43.97847" lon="5.10845">
        <ele>275</ele>
        <time>2013-04-11T15:53:52Z</time>
      </trkpt>
      <trkpt lat="43.9785" lon="5.10847">
        <ele>275</ele>
        <time>2013-04-11T15:54:23Z</time>
      </trkpt>
      <trkpt lat="43.97849" lon="5.10852">
        <ele>276</ele>
        <time>2013-04-11T15:54:48Z</time>
      </trkpt>
      <trkpt lat="43.97848" lon="5.10854">
        <ele>276</ele>
        <time>2013-04-11T15:55:08Z</time>
      </trkpt>
      <trkpt lat="43.97847" lon="5.10854">
        <ele>276</ele>
        <time>2013-04-11T15:55:35Z</time>
      </trkpt>
      <trkpt lat="43.97849" lon="5.10854">
        <ele>277</ele>
        <time>2013-04-11T15:56:33Z</time>
      </trkpt>
      <trkpt lat="43.97847" lon="5.10852">
        <ele>277</ele>
        <time>2013-04-11T15:57:07Z</time>
      </trkpt>
      <trkpt lat="43.97847" lon="5.10852">
        <ele>277</ele>
        <time>2013-04-11T15:57:30Z</time>
      </trkpt>
      <trkpt lat="43.97847" lon="5.10852">
        <ele>278</ele>
        <time>2013-04-11T15:58:07Z</time>
      </trkpt>
    </trkseg>
  </trk>
</gpx>